HIGHLAND LAKE: From 05/23/2018 00:00 to 07/24/2018 00:00

Date LAKE ELEVATION [FT] PRECIPITATION INCREMENT [IN] PRECIPITATION TOTAL [IN] AIR TEMPERATURE [F] RELATIVE HUMIDITY [%]
07/22/2018 16:00 1294.47 0.00 -- 66.5 100.0
07/22/2018 15:00 1294.44 0.00 -- 65.4 100.0
07/22/2018 14:00 1294.47 0.00 -- 63.7 100.0
07/22/2018 13:00 1294.49 0.00 -- 62.0 100.0
07/22/2018 12:00 1294.46 0.01 -- 60.4 100.0
07/22/2018 11:00 1294.48 0.07 -- 59.1 100.0
07/22/2018 10:00 1294.49 0.03 -- 57.9 100.0
07/22/2018 09:00 1294.45 0.00 -- 57.7 100.0
07/22/2018 08:00 1294.46 0.00 -- 57.8 99.0
07/22/2018 07:00 1294.47 0.00 -- 58.1 94.0
07/22/2018 06:00 1294.44 0.00 -- 58.4 93.0
07/22/2018 05:00 1294.44 0.00 -- 58.7 92.0
07/22/2018 04:00 1294.46 0.00 -- 58.2 93.0
07/22/2018 03:00 1294.48 0.00 -- 58.8 88.0
07/22/2018 02:00 1294.43 0.00 -- 58.9 90.0
07/22/2018 01:00 1294.46 0.00 -- 58.6 90.0
07/22/2018 00:00 1294.46 0.00 -- 58.8 88.0
07/21/2018 23:00 1294.44 0.00 -- 60.7 85.0
07/21/2018 22:00 1294.46 0.00 -- 61.9 75.0
07/21/2018 21:00 1294.48 0.00 -- 65.1 65.0
07/21/2018 20:00 1294.42 0.00 -- 68.5 63.0
07/21/2018 19:00 1294.44 0.00 -- 71.2 57.0
07/21/2018 18:00 1294.48 0.00 -- 73.4 47.0
07/21/2018 17:00 1294.43 0.00 -- 76.5 44.0
07/21/2018 16:00 1294.48 0.00 -- 76.1 43.0
07/21/2018 15:00 1294.45 0.00 -- 74.4 47.0
07/21/2018 14:00 1294.44 0.00 -- 72.5 49.0
07/21/2018 13:00 1294.43 0.00 -- 70.3 61.0
07/21/2018 12:00 1294.49 0.00 -- 68.5 62.0
07/21/2018 11:00 1294.47 0.00 -- 68.1 66.0
07/21/2018 10:00 1294.45 0.00 -- 64.4 81.0
07/21/2018 09:00 1294.48 0.00 -- 58.0 99.0
07/21/2018 08:00 1294.48 0.00 -- 53.8 99.0
07/21/2018 07:00 1294.49 0.00 -- 52.1 100.0
07/21/2018 06:00 1294.44 0.00 -- 52.3 99.0
07/21/2018 05:00 1294.44 0.00 -- 52.7 99.0
07/21/2018 04:00 1294.45 0.00 -- 53.9 99.0
07/21/2018 03:00 1294.46 0.00 -- 55.0 99.0
07/21/2018 02:00 1294.43 0.00 -- 56.5 99.0
07/21/2018 01:00 1294.48 0.00 -- 58.4 97.0
07/21/2018 00:00 1294.46 0.00 0.00 61.0 90.0
07/20/2018 23:00 1294.48 0.00 -- 63.5 73.0
07/20/2018 22:00 1294.44 0.00 -- 65.6 70.0
07/20/2018 21:00 1294.45 0.00 -- 70.4 58.0
07/20/2018 20:00 1294.47 0.00 -- 75.9 47.0
07/20/2018 19:00 1294.48 0.00 -- 80.1 39.0
07/20/2018 18:00 1294.46 0.00 -- 81.6 39.0
07/20/2018 17:00 1294.49 0.00 -- 82.3 36.0
07/20/2018 16:00 1294.44 0.00 -- 80.5 36.0
07/20/2018 15:00 1294.49 0.00 -- 79.4 34.0
07/20/2018 14:00 1294.47 0.00 -- 77.0 42.0
07/20/2018 13:00 1294.46 0.00 -- 76.3 41.0
07/20/2018 12:00 1294.46 0.00 -- 74.1 43.0
07/20/2018 11:00 1294.50 0.00 -- 71.9 46.0
07/20/2018 10:00 1294.47 0.00 -- 67.0 56.0
07/20/2018 09:00 1294.48 0.00 -- 56.9 100.0
07/20/2018 08:00 1294.48 0.00 -- 51.1 99.0
07/20/2018 07:00 1294.48 0.00 -- 51.4 100.0
07/20/2018 06:00 1294.50 0.00 -- 50.3 99.0
07/20/2018 05:00 1294.47 0.00 -- 50.5 99.0
07/20/2018 04:00 1294.49 0.00 -- 51.0 99.0
07/20/2018 03:00 1294.51 0.00 -- 52.3 99.0
07/20/2018 02:00 1294.48 0.00 -- 52.6 99.0
07/20/2018 01:00 1294.51 0.00 -- 53.4 99.0
07/20/2018 00:00 1294.47 0.00 0.00 55.2 98.0
07/19/2018 23:00 1294.49 0.00 -- 57.3 92.0
07/19/2018 22:00 1294.50 0.00 -- 60.0 80.0
07/19/2018 21:00 1294.51 0.00 -- 66.0 68.0
07/19/2018 20:00 1294.46 0.00 -- 74.7 45.0
07/19/2018 19:00 1294.47 0.00 -- 77.4 32.0
07/19/2018 18:00 1294.49 0.00 -- 76.4 32.0
07/19/2018 17:00 1294.46 0.00 -- 75.1 33.0
07/19/2018 16:00 1294.49 0.00 -- 74.3 33.0
07/19/2018 15:00 1294.48 0.00 -- 71.7 34.0
07/19/2018 14:00 1294.52 0.00 -- 70.2 35.0
07/19/2018 13:00 1294.51 0.00 -- 69.0 39.0
07/19/2018 12:00 1294.51 0.00 -- 67.9 34.0
07/19/2018 11:00 1294.52 0.00 -- 67.4 42.0
07/19/2018 10:00 1294.52 0.00 -- 63.0 58.0
07/19/2018 09:00 1294.54 0.00 -- 52.5 99.0
07/19/2018 08:00 1294.54 0.00 -- 46.5 99.0
07/19/2018 07:00 1294.54 0.00 -- 44.9 99.0
07/19/2018 06:00 1294.53 0.00 -- 45.1 99.0
07/19/2018 05:00 1294.52 0.00 -- 46.6 100.0
07/19/2018 04:00 1294.47 0.00 -- 49.6 100.0
07/19/2018 03:00 1294.47 0.00 -- 49.6 100.0
07/19/2018 02:00 1294.46 0.00 -- 48.1 99.0
07/19/2018 01:00 1294.46 0.00 -- 49.3 99.0
07/19/2018 00:00 1294.47 0.00 0.00 51.3 98.0
07/18/2018 23:00 1294.49 0.00 -- 54.1 94.0
07/18/2018 22:00 1294.51 0.00 -- 57.1 76.0
07/18/2018 21:00 1294.46 0.00 -- 64.7 56.0
07/18/2018 20:00 1294.50 0.00 -- 70.5 36.0
07/18/2018 19:00 1294.53 0.00 -- 72.5 36.0
07/18/2018 18:00 1294.50 0.00 -- 73.3 36.0
07/18/2018 17:00 1294.48 0.00 -- 72.5 38.0
07/18/2018 16:00 1294.54 0.00 -- 71.9 39.0
07/18/2018 15:00 1294.49 0.00 -- 69.9 46.0
07/18/2018 14:00 1294.49 0.00 -- 68.0 51.0
07/18/2018 13:00 1294.56 0.00 -- 66.8 51.0
07/18/2018 12:00 1294.57 0.00 -- 64.9 59.0
07/18/2018 11:00 1294.49 0.00 -- 62.7 72.0
07/18/2018 10:00 1294.53 0.00 -- 61.4 77.0
07/18/2018 09:00 1294.55 0.00 -- 58.7 97.0
07/18/2018 08:00 1294.54 0.00 -- 58.1 100.0
07/18/2018 07:00 1294.53 0.00 -- 58.2 100.0
07/18/2018 06:00 1294.54 0.00 -- 59.6 100.0
07/18/2018 05:00 1294.53 0.00 -- 61.0 100.0
07/18/2018 04:00 1294.50 0.00 -- 63.1 100.0
07/18/2018 03:00 1294.51 0.00 -- 64.2 100.0
07/18/2018 02:00 1294.48 0.00 -- 65.2 100.0
07/18/2018 01:00 1294.52 0.00 -- 65.5 100.0
07/18/2018 00:00 1294.49 0.00 0.00 66.3 100.0
07/17/2018 23:00 1294.53 0.00 -- 66.5 100.0
07/17/2018 22:00 1294.50 0.00 -- 66.8 100.0
07/17/2018 21:00 1294.45 0.00 -- 66.9 100.0
07/17/2018 20:00 1294.49 0.00 -- 67.2 100.0
07/17/2018 19:00 1294.46 0.00 -- 67.1 100.0
07/17/2018 18:00 1294.51 0.08 -- 67.1 100.0
07/17/2018 17:00 1294.48 0.14 -- 66.9 100.0
07/17/2018 16:00 1294.48 0.02 -- 67.1 100.0
07/17/2018 15:00 1294.47 0.06 -- 67.2 100.0
07/17/2018 14:00 1294.45 0.10 -- 65.5 100.0
07/17/2018 13:00 1294.49 0.05 -- 65.3 100.0
07/17/2018 12:00 1294.46 0.18 -- 65.0 100.0
07/17/2018 11:00 1294.47 0.00 -- 71.6 100.0
07/17/2018 10:00 1294.44 0.01 -- 69.9 100.0
07/17/2018 09:00 1294.44 0.01 -- 70.1 99.5
07/17/2018 08:00 1294.44 0.01 -- 70.3 99.1
07/17/2018 07:00 1294.45 0.01 -- 70.4 98.6
07/17/2018 06:00 1294.45 0.01 -- 70.6 98.2
07/17/2018 05:00 1294.45 0.01 -- 70.8 97.7
07/17/2018 04:00 1294.45 0.01 -- 71.0 97.3
07/17/2018 03:00 1294.45 0.01 -- 71.2 96.8
07/17/2018 02:00 1294.45 0.01 -- 71.4 96.4
07/17/2018 01:00 1294.46 0.01 -- 71.5 95.9
07/17/2018 00:00 1294.46 0.01 0.70 71.7 95.5
07/16/2018 23:00 1294.46 0.00 -- 71.9 95.0
07/16/2018 22:00 1294.42 0.00 -- 73.1 86.0
07/16/2018 21:00 1294.46 0.00 -- 75.5 81.0
07/16/2018 20:00 1294.42 0.00 -- 80.4 69.0
07/16/2018 19:00 1294.47 0.00 -- 82.9 58.0
07/16/2018 18:00 1294.45 0.00 -- 84.6 58.0
07/16/2018 17:00 1294.43 0.00 -- 81.7 64.0
07/16/2018 16:00 1294.44 0.00 -- 79.8 67.0
07/16/2018 15:00 1294.42 0.00 -- 81.7 61.0
07/16/2018 14:00 1294.46 0.00 -- 81.6 56.0
07/16/2018 13:00 1294.45 0.00 -- 81.9 57.0
07/16/2018 12:00 1294.45 0.00 -- 79.0 60.0
07/16/2018 11:00 1294.48 0.00 -- 76.5 73.0
07/16/2018 10:00 1294.44 0.00 -- 73.4 73.0
07/16/2018 09:00 1294.48 0.00 -- 65.5 100.0
07/16/2018 08:00 1294.45 0.00 -- 61.4 100.0
07/16/2018 07:00 1294.47 0.00 -- 60.3 100.0
07/16/2018 06:00 1294.49 0.00 -- 60.8 100.0
07/16/2018 05:00 1294.45 0.00 -- 61.6 100.0
07/16/2018 04:00 1294.49 0.00 -- 62.6 100.0
07/16/2018 03:00 1294.45 0.00 -- 63.1 100.0
07/16/2018 02:00 1294.49 0.00 -- 64.4 100.0
07/16/2018 01:00 1294.45 0.00 -- 66.0 100.0
07/16/2018 00:00 1294.47 0.00 0.01 66.5 100.0
07/15/2018 23:00 1294.44 0.00 -- 68.0 100.0
07/15/2018 22:00 1294.46 0.00 -- 69.4 97.0
07/15/2018 21:00 1294.48 0.00 -- 72.0 88.0
07/15/2018 20:00 1294.43 0.00 -- 77.3 68.0
07/15/2018 19:00 1294.46 0.00 -- 81.7 62.0
07/15/2018 18:00 1294.49 0.00 -- 84.4 45.0
07/15/2018 17:00 1294.46 0.00 -- 80.4 58.0
07/15/2018 16:00 1294.50 0.00 -- 79.1 63.0
07/15/2018 15:00 1294.47 0.00 -- 81.0 66.0
07/15/2018 14:00 1294.45 0.00 -- 78.6 65.0
07/15/2018 13:00 1294.48 0.00 -- 77.5 61.0
07/15/2018 12:00 1294.47 0.00 -- 74.3 72.0
07/15/2018 11:00 1294.50 0.00 -- 72.3 86.0
07/15/2018 10:00 1294.48 0.00 -- 66.6 100.0
07/15/2018 09:00 1294.46 0.00 -- 62.9 100.0
07/15/2018 08:00 1294.49 0.00 -- 62.1 100.0
07/15/2018 07:00 1294.50 0.00 -- 61.3 100.0
07/15/2018 06:00 1294.46 0.00 -- 61.0 100.0
07/15/2018 05:00 1294.48 0.00 -- 60.8 100.0
07/15/2018 04:00 1294.45 0.00 -- 61.4 100.0
07/15/2018 03:00 1294.48 0.00 -- 61.2 100.0
07/15/2018 02:00 1294.52 0.00 -- 61.2 100.0
07/15/2018 01:00 1294.47 0.00 -- 61.1 100.0
07/15/2018 00:00 1294.44 0.01 0.00 61.1 100.0
07/14/2018 23:00 1294.47 0.00 -- 61.4 100.0
07/14/2018 22:00 1294.50 0.00 -- 62.4 100.0
07/14/2018 21:00 1294.48 0.20 -- 65.6 100.0
07/14/2018 20:00 1294.48 0.00 -- 69.2 89.0
07/14/2018 19:00 1294.45 0.00 -- 70.9 81.0
07/14/2018 18:00 1294.43 0.00 -- 71.3 81.0
07/14/2018 17:00 1294.46 0.00 -- 72.5 73.0
07/14/2018 16:00 1294.44 0.00 -- 72.5 72.0
07/14/2018 15:00 1294.48 0.00 -- 70.1 77.0
07/14/2018 14:00 1294.46 0.00 -- 67.6 78.0
07/14/2018 13:00 1294.43 0.00 -- 66.9 78.0
07/14/2018 12:00 1294.48 0.00 -- 67.4 75.0
07/14/2018 11:00 1294.45 0.00 -- 64.3 80.0
07/14/2018 10:00 1294.49 0.00 -- 61.3 87.0
07/14/2018 09:00 1294.46 0.00 -- 59.2 90.0
07/14/2018 08:00 1294.49 0.00 -- 57.0 94.0
07/14/2018 07:00 1294.45 0.00 -- 55.5 96.0
07/14/2018 06:00 1294.48 0.00 -- 53.9 98.0
07/14/2018 05:00 1294.44 0.00 -- 53.1 99.0
07/14/2018 04:00 1294.47 0.00 -- 53.7 97.0
07/14/2018 03:00 1294.48 0.00 -- 55.3 90.0
07/14/2018 02:00 1294.46 0.00 -- 57.0 84.0
07/14/2018 01:00 1294.47 0.00 -- 58.5 80.0
07/14/2018 00:00 1294.44 0.00 0.21 60.7 71.0
07/13/2018 23:00 1294.48 0.00 -- 63.4 65.0
07/13/2018 22:00 1294.50 0.00 -- 65.7 67.0
07/13/2018 21:00 1294.45 0.00 -- 69.3 62.0
07/13/2018 20:00 1294.46 0.00 -- 76.1 52.0
07/13/2018 19:00 1294.44 0.00 -- 79.0 44.0
07/13/2018 18:00 1294.48 0.00 -- 80.3 43.0
07/13/2018 17:00 1294.44 0.00 -- 80.0 42.0
07/13/2018 16:00 1294.51 0.00 -- 77.6 42.0
07/13/2018 15:00 1294.48 0.00 -- 76.2 48.0
07/13/2018 14:00 1294.45 0.00 -- 74.1 56.0
07/13/2018 13:00 1294.50 0.00 -- 76.1 51.0
07/13/2018 12:00 1294.50 0.00 -- 75.0 52.0
07/13/2018 11:00 1294.48 0.00 -- 72.7 56.0
07/13/2018 10:00 1294.51 0.00 -- 69.0 60.0
07/13/2018 09:00 1294.46 0.00 -- 61.7 80.0
07/13/2018 08:00 1294.47 0.00 -- 55.3 99.0
07/13/2018 07:00 1294.48 0.00 -- 53.9 99.0
07/13/2018 06:00 1294.49 0.00 -- 54.0 98.0
07/13/2018 05:00 1294.50 0.00 -- 54.5 94.0
07/13/2018 04:00 1294.46 0.00 -- 55.8 89.0
07/13/2018 03:00 1294.46 0.00 -- 56.7 85.0
07/13/2018 02:00 1294.50 0.00 -- 57.3 84.0
07/13/2018 01:00 1294.47 0.00 -- 59.9 80.0
07/13/2018 00:00 1294.49 0.00 0.00 61.5 72.0
07/12/2018 23:00 1294.47 0.00 -- 62.4 71.0
07/12/2018 22:00 1294.50 0.00 -- 63.5 69.0
07/12/2018 21:00 1294.50 0.00 -- 68.7 60.0
07/12/2018 20:00 1294.46 0.00 -- 74.2 48.0
07/12/2018 19:00 1294.50 0.00 -- 72.9 46.0
07/12/2018 18:00 1294.47 0.00 -- 74.2 40.0
07/12/2018 17:00 1294.50 0.00 -- 77.0 32.0
07/12/2018 16:00 1294.45 0.00 -- 73.9 35.0
07/12/2018 15:00 1294.52 0.00 -- 74.0 35.0
07/12/2018 14:00 1294.51 0.00 -- 73.2 39.0
07/12/2018 13:00 1294.47 0.00 -- 71.2 36.0
07/12/2018 12:00 1294.55 0.00 -- 70.0 36.0
07/12/2018 11:00 1294.50 0.00 -- 67.0 41.0
07/12/2018 10:00 1294.53 0.00 -- 64.4 52.0
07/12/2018 09:00 1294.48 0.00 -- 56.6 82.0
07/12/2018 08:00 1294.48 0.00 -- 49.2 99.0
07/12/2018 07:00 1294.48 0.00 -- 47.5 100.0
07/12/2018 06:00 1294.48 0.00 -- 49.8 100.0
07/12/2018 05:00 1294.49 0.00 -- 49.1 100.0
07/12/2018 04:00 1294.49 0.00 -- 48.9 99.0
07/12/2018 03:00 1294.51 0.00 -- 49.7 99.0
07/12/2018 02:00 1294.47 0.00 -- 52.1 97.0
07/12/2018 01:00 1294.47 0.00 -- 54.2 90.0
07/12/2018 00:00 1294.50 0.00 0.00 56.4 97.0
07/11/2018 23:00 1294.50 0.00 -- 57.1 81.0
07/11/2018 22:00 1294.50 0.00 -- 60.1 67.0
07/11/2018 21:00 1294.51 0.00 -- 66.4 66.0
07/11/2018 20:00 1294.47 0.00 -- 74.4 46.0
07/11/2018 19:00 1294.51 0.00 -- 76.4 35.0
07/11/2018 18:00 1294.50 0.00 -- 76.3 40.0
07/11/2018 17:00 1294.52 0.00 -- 74.9 44.0
07/11/2018 16:00 1294.50 0.00 -- 74.3 40.0
07/11/2018 15:00 1294.48 0.00 -- 73.6 44.0
07/11/2018 14:00 1294.49 0.00 -- 72.5 52.0
07/11/2018 13:00 1294.56 0.00 -- 71.8 54.0
07/11/2018 12:00 1294.52 0.00 -- 69.0 72.0
07/11/2018 11:00 1294.48 0.00 -- 68.4 72.0
07/11/2018 10:00 1294.53 0.00 -- 64.3 100.0
07/11/2018 09:00 1294.48 0.00 -- 61.7 100.0
07/11/2018 08:00 1294.50 0.00 -- 59.6 100.0
07/11/2018 07:00 1294.54 0.00 -- 58.7 100.0
07/11/2018 06:00 1294.56 0.00 -- 58.0 100.0
07/11/2018 05:00 1294.53 0.00 -- 58.9 100.0
07/11/2018 04:00 1294.51 0.00 -- 59.4 100.0
07/11/2018 03:00 1294.49 0.00 -- 59.7 100.0
07/11/2018 02:00 1294.52 0.00 -- 60.7 100.0
07/11/2018 01:00 1294.49 0.00 -- 61.3 100.0
07/11/2018 00:00 1294.53 0.00 0.00 61.0 100.0
07/10/2018 23:00 1294.48 0.00 -- 61.8 100.0
07/10/2018 22:00 1294.52 0.01 -- 62.7 100.0
07/10/2018 21:00 1294.54 0.01 -- 64.0 100.0
07/10/2018 20:00 1294.50 0.69 -- 62.0 100.0
07/10/2018 19:00 1294.49 0.00 -- 81.0 47.0
07/10/2018 18:00 1294.43 0.00 -- 82.8 39.0
07/10/2018 17:00 1294.49 0.00 -- 82.3 41.0
07/10/2018 16:00 1294.48 0.00 -- 82.2 40.0
07/10/2018 15:00 1294.46 0.00 -- 82.7 42.0
07/10/2018 14:00 1294.50 0.00 -- 81.9 39.0
07/10/2018 13:00 1294.50 0.00 -- 80.5 43.0
07/10/2018 12:00 1294.50 0.00 -- 77.7 49.0
07/10/2018 11:00 1294.46 0.00 -- 75.9 47.0
07/10/2018 10:00 1294.46 0.00 -- 73.2 60.0
07/10/2018 09:00 1294.46 0.00 -- 66.8 74.0
07/10/2018 08:00 1294.52 0.00 -- 64.2 79.0
07/10/2018 07:00 1294.50 0.00 -- 59.6 95.0
07/10/2018 06:00 1294.47 0.00 -- 59.9 92.0
07/10/2018 05:00 1294.50 0.00 -- 60.9 89.0
07/10/2018 04:00 1294.48 0.00 -- 62.3 79.0
07/10/2018 03:00 1294.46 0.00 -- 60.3 86.0
07/10/2018 02:00 1294.45 0.00 -- 60.7 85.0
07/10/2018 01:00 1294.52 0.00 -- 63.2 85.0
07/10/2018 00:00 1294.49 0.00 0.71 64.7 84.0
07/09/2018 23:00 1294.47 0.00 -- 65.3 67.0
07/09/2018 22:00 1294.50 0.00 -- 68.5 61.0
07/09/2018 21:00 1294.48 0.00 -- 75.3 49.0
07/09/2018 20:00 1294.52 0.00 -- 83.5 31.0
07/09/2018 19:00 1294.48 0.00 -- 84.9 28.0
07/09/2018 18:00 1294.46 0.00 -- 85.0 35.0
07/09/2018 17:00 1294.46 0.00 -- 83.7 39.0
07/09/2018 16:00 1294.44 0.00 -- 82.9 37.0
07/09/2018 15:00 1294.52 0.00 -- 81.4 34.0
07/09/2018 14:00 1294.51 0.00 -- 80.0 33.0
07/09/2018 13:00 1294.53 0.00 -- 78.3 44.0
07/09/2018 12:00 1294.47 0.00 -- 75.9 47.0
07/09/2018 11:00 1294.48 0.00 -- 74.4 50.0
07/09/2018 10:00 1294.52 0.00 -- 68.4 66.0
07/09/2018 09:00 1294.47 0.00 -- 62.0 78.0
07/09/2018 08:00 1294.51 0.00 -- 59.4 86.0
07/09/2018 07:00 1294.45 0.00 -- 56.7 92.0
07/09/2018 06:00 1294.55 0.00 -- 55.9 95.0
07/09/2018 05:00 1294.52 0.00 -- 57.0 91.0
07/09/2018 04:00 1294.48 0.00 -- 60.2 84.0
07/09/2018 03:00 1294.53 0.00 -- 61.1 81.0
07/09/2018 02:00 1294.52 0.00 -- 59.2 87.0
07/09/2018 01:00 1294.48 0.00 -- 59.9 84.0
07/09/2018 00:00 1294.52 0.00 0.00 60.8 80.0
07/08/2018 23:00 1294.52 0.00 -- 62.6 75.0
07/08/2018 22:00 1294.54 0.00 -- 65.5 68.0
07/08/2018 21:00 1294.50 0.00 -- 72.0 52.0
07/08/2018 20:00 1294.51 0.00 -- 80.5 35.0
07/08/2018 19:00 1294.50 0.00 -- 80.6 32.0
07/08/2018 18:00 1294.53 0.00 -- 81.0 33.0
07/08/2018 17:00 1294.51 0.00 -- 80.5 32.0
07/08/2018 16:00 1294.50 0.00 -- 78.9 32.0
07/08/2018 15:00 1294.55 0.00 -- 77.1 31.0
07/08/2018 14:00 1294.54 0.00 -- 75.1 34.0
07/08/2018 13:00 1294.53 0.00 -- 74.2 33.0
07/08/2018 12:00 1294.53 0.00 -- 72.6 41.0
07/08/2018 11:00 1294.52 0.00 -- 71.7 43.0
07/08/2018 10:00 1294.55 0.00 -- 66.8 72.0
07/08/2018 09:00 1294.55 0.00 -- 56.2 98.0
07/08/2018 08:00 1294.57 0.00 -- 50.6 99.0
07/08/2018 07:00 1294.56 0.00 -- 47.8 99.0
07/08/2018 06:00 1294.55 0.00 -- 47.9 99.0
07/08/2018 05:00 1294.56 0.00 -- 49.2 99.0
07/08/2018 04:00 1294.50 0.00 -- 49.3 99.0
07/08/2018 03:00 1294.52 0.00 -- 50.4 99.0
07/08/2018 02:00 1294.54 0.00 -- 50.8 99.0
07/08/2018 01:00 1294.49 0.00 -- 51.8 96.0
07/08/2018 00:00 1294.53 0.00 0.00 52.9 94.0
07/07/2018 23:00 1294.50 0.00 -- 55.4 89.0
07/07/2018 22:00 1294.51 0.00 -- 58.8 79.0
07/07/2018 21:00 1294.53 0.00 -- 65.9 61.0
07/07/2018 20:00 1294.50 0.00 -- 70.3 43.0
07/07/2018 19:00 1294.53 0.00 -- 72.8 39.0
07/07/2018 18:00 1294.50 0.00 -- 74.0 35.0
07/07/2018 17:00 1294.55 0.00 -- 72.4 37.0
07/07/2018 16:00 1294.54 0.00 -- 71.3 38.0
07/07/2018 15:00 1294.50 0.00 -- 70.5 38.0
07/07/2018 14:00 1294.57 0.00 -- 68.2 38.0
07/07/2018 13:00 1294.57 0.00 -- 66.4 37.0
07/07/2018 12:00 1294.58 0.00 -- 65.5 41.0
07/07/2018 11:00 1294.56 0.00 -- 63.1 47.0
07/07/2018 10:00 1294.57 0.00 -- 60.3 51.0
07/07/2018 09:00 1294.58 0.00 -- 55.5 69.0
07/07/2018 08:00 1294.59 0.00 -- 47.4 94.0
07/07/2018 07:00 1294.58 0.00 -- 44.7 96.0
07/07/2018 06:00 1294.58 0.00 -- 44.7 93.0
07/07/2018 05:00 1294.58 0.00 -- 46.2 90.0
07/07/2018 04:00 1294.50 0.00 -- 48.2 83.0
07/07/2018 03:00 1294.50 0.00 -- 53.5 76.0
07/07/2018 02:00 1294.50 0.00 -- 53.2 70.0
07/07/2018 01:00 1294.51 0.00 -- 55.7 63.0
07/07/2018 00:00 1294.53 0.00 0.00 57.2 57.0
07/06/2018 23:00 1294.54 0.00 -- 58.4 57.0
07/06/2018 22:00 1294.56 0.00 -- 60.5 64.0
07/06/2018 21:00 1294.56 0.00 -- 64.0 58.0
07/06/2018 20:00 1294.58 0.00 -- 69.2 54.0
07/06/2018 19:00 1294.64 0.00 -- 71.9 59.0
07/06/2018 18:00 1294.56 0.00 -- 73.6 54.0
07/06/2018 17:00 1294.56 0.00 -- 75.2 56.0
07/06/2018 16:00 1294.61 0.00 -- 76.1 61.0
07/06/2018 15:00 1294.64 0.00 -- 75.9 64.0
07/06/2018 14:00 1294.63 0.00 -- 78.6 58.0
07/06/2018 13:00 1294.58 0.00 -- 74.8 85.0
07/06/2018 12:00 1294.60 0.00 -- 73.5 99.0
07/06/2018 11:00 1294.56 0.00 -- 72.1 100.0
07/06/2018 10:00 1294.57 0.00 -- 71.4 100.0
07/06/2018 09:00 1294.56 0.01 -- 71.2 100.0
07/06/2018 08:00 1294.54 0.24 -- 70.8 100.0
07/06/2018 07:00 1294.55 0.00 -- 72.8 97.0
07/06/2018 06:00 1294.52 0.00 -- 73.3 95.0
07/06/2018 05:00 1294.55 0.00 -- 73.2 95.0
07/06/2018 04:00 1294.55 0.00 -- 73.3 96.0
07/06/2018 03:00 1294.53 0.00 -- 73.7 91.0
07/06/2018 02:00 1294.56 0.00 -- 74.1 91.0
07/06/2018 01:00 1294.54 0.00 -- 74.5 89.0
07/06/2018 00:00 1294.53 0.00 0.25 75.1 79.0
07/05/2018 23:00 1294.60 0.00 -- 75.9 74.0
07/05/2018 22:00 1294.56 0.00 -- 77.3 72.0
07/05/2018 21:00 1294.54 0.00 -- 79.4 69.0
07/05/2018 20:00 1294.58 0.00 -- 82.5 67.0
07/05/2018 19:00 1294.54 0.00 -- 84.3 65.0
07/05/2018 18:00 1294.55 0.00 -- 85.3 59.0
07/05/2018 17:00 1294.60 0.00 -- 85.8 56.0
07/05/2018 16:00 1294.58 0.00 -- 85.1 59.0
07/05/2018 15:00 1294.58 0.00 -- 86.1 56.0
07/05/2018 14:00 1294.56 0.00 -- 84.4 62.0
07/05/2018 13:00 1294.56 0.00 -- 83.2 62.0
07/05/2018 12:00 1294.58 0.00 -- 81.4 63.0
07/05/2018 11:00 1294.58 0.00 -- 79.0 67.0
07/05/2018 10:00 1294.59 0.00 -- 76.9 80.0
07/05/2018 09:00 1294.58 0.00 -- 72.9 99.0
07/05/2018 08:00 1294.61 0.00 -- 70.4 100.0
07/05/2018 07:00 1294.59 0.00 -- 66.4 100.0
07/05/2018 06:00 1294.62 0.00 -- 65.5 100.0
07/05/2018 05:00 1294.60 0.00 -- 65.3 100.0
07/05/2018 04:00 1294.58 0.00 -- 64.5 100.0
07/05/2018 03:00 1294.63 0.00 -- 64.9 100.0
07/05/2018 02:00 1294.62 0.00 -- 66.0 100.0
07/05/2018 01:00 1294.62 0.00 -- 66.9 100.0
07/05/2018 00:00 1294.62 0.00 0.00 68.4 99.0
07/04/2018 23:00 1294.63 0.00 -- 70.3 86.0
07/04/2018 22:00 1294.62 0.00 -- 73.5 76.0
07/04/2018 21:00 1294.59 0.00 -- 79.0 63.0
07/04/2018 20:00 1294.61 0.00 -- 87.4 43.0
07/04/2018 19:00 1294.60 0.00 -- 88.0 40.0
07/04/2018 18:00 1294.59 0.00 -- 89.8 33.0
07/04/2018 17:00 1294.60 0.00 -- 88.8 35.0
07/04/2018 16:00 1294.63 0.00 -- 88.2 36.0
07/04/2018 15:00 1294.61 0.00 -- 87.4 32.0
07/04/2018 14:00 1294.62 0.00 -- 86.3 34.0
07/04/2018 13:00 1294.64 0.00 -- 84.6 37.0
07/04/2018 12:00 1294.65 0.00 -- 83.0 41.0
07/04/2018 11:00 1294.66 0.00 -- 80.7 48.0
07/04/2018 10:00 1294.65 0.00 -- 75.6 64.0
07/04/2018 09:00 1294.65 0.00 -- 66.9 98.0
07/04/2018 08:00 1294.65 0.00 -- 61.7 100.0
07/04/2018 07:00 1294.66 0.00 -- 60.3 100.0
07/04/2018 06:00 1294.65 0.00 -- 60.6 100.0
07/04/2018 05:00 1294.65 0.00 -- 61.6 100.0
07/04/2018 04:00 1294.66 0.00 -- 63.1 100.0
07/04/2018 03:00 1294.66 0.00 -- 65.1 99.0
07/04/2018 02:00 1294.66 0.00 -- 66.7 100.0
07/04/2018 01:00 1294.66 0.00 -- 67.0 100.0
07/04/2018 00:00 1294.66 0.00 0.00 68.1 100.0
07/03/2018 23:00 1294.66 0.00 -- 70.7 99.0
07/03/2018 22:00 1294.66 0.00 -- 72.9 89.0
07/03/2018 21:00 1294.66 0.00 -- 78.6 74.0
07/03/2018 20:00 1294.66 0.00 -- 86.5 57.0
07/03/2018 19:00 1294.67 0.00 -- 88.3 45.0
07/03/2018 18:00 1294.66 0.00 -- 88.1 51.0
07/03/2018 17:00 1294.66 0.00 -- 85.5 64.0
07/03/2018 16:00 1294.67 0.00 -- 86.5 57.0
07/03/2018 15:00 1294.66 0.00 -- 84.7 61.0
07/03/2018 14:00 1294.67 0.00 -- 85.3 53.0
07/03/2018 13:00 1294.66 0.00 -- 85.2 59.0
07/03/2018 12:00 1294.66 0.00 -- 83.9 62.0
07/03/2018 11:00 1294.66 0.00 -- 81.8 64.0
07/03/2018 10:00 1294.66 0.00 -- 78.5 71.0
07/03/2018 09:00 1294.66 0.00 -- 73.9 87.0
07/03/2018 08:00 1294.66 0.00 -- 71.0 100.0
07/03/2018 07:00 1294.65 0.00 -- 70.7 100.0
07/03/2018 06:00 1294.66 0.00 -- 70.4 100.0
07/03/2018 05:00 1294.67 0.00 -- 71.2 100.0
07/03/2018 04:00 1294.66 0.00 -- 71.8 99.0
07/03/2018 03:00 1294.66 0.00 -- 72.6 92.0
07/03/2018 02:00 1294.66 0.00 -- 74.0 86.0
07/03/2018 01:00 1294.64 0.00 -- 75.3 80.0
07/03/2018 00:00 1294.65 0.00 0.00 76.0 77.0
07/02/2018 23:00 1294.66 0.00 -- 75.4 84.0
07/02/2018 22:00 1294.66 0.00 -- 75.3 90.0
07/02/2018 21:00 1294.66 0.00 -- 80.5 72.0
07/02/2018 20:00 1294.66 0.00 -- 85.7 61.0
07/02/2018 19:00 1294.65 0.00 -- 87.5 56.0
07/02/2018 18:00 1294.66 0.00 -- 89.2 52.0
07/02/2018 17:00 1294.65 0.00 -- 87.4 56.0
07/02/2018 16:00 1294.65 0.00 -- 88.9 52.0
07/02/2018 15:00 1294.66 0.00 -- 87.3 53.0
07/02/2018 14:00 1294.67 0.00 -- 83.6 65.0
07/02/2018 13:00 1294.67 0.00 -- 82.9 66.0
07/02/2018 12:00 1294.67 0.00 -- 80.2 69.0
07/02/2018 11:00 1294.68 0.00 -- 76.2 75.0
07/02/2018 10:00 1294.69 0.00 -- 73.2 83.0
07/02/2018 09:00 1294.69 0.00 -- 69.0 99.0
07/02/2018 08:00 1294.68 0.00 -- 67.0 100.0
07/02/2018 07:00 1294.69 0.00 -- 64.8 100.0
07/02/2018 06:00 1294.68 0.00 -- 64.7 100.0
07/02/2018 05:00 1294.68 0.00 -- 65.4 100.0
07/02/2018 04:00 1294.69 0.00 -- 66.3 100.0
07/02/2018 03:00 1294.69 0.00 -- 67.2 100.0
07/02/2018 02:00 1294.69 0.00 -- 68.9 96.0
07/02/2018 01:00 1294.69 0.00 -- 70.7 89.0
07/02/2018 00:00 1294.68 0.00 0.00 72.4 86.0
07/01/2018 23:00 1294.69 0.00 -- 74.8 83.0
07/01/2018 22:00 1294.69 0.00 -- 76.9 81.0
07/01/2018 21:00 1294.68 0.00 -- 80.4 80.0
07/01/2018 20:00 1294.68 0.00 -- 85.4 67.0
07/01/2018 19:00 1294.68 0.00 -- 87.6 60.0
07/01/2018 18:00 1294.69 0.00 -- 87.7 59.0
07/01/2018 17:00 1294.69 0.00 -- 91.1 49.0
07/01/2018 16:00 1294.69 -- -- 89.4 55.0
07/01/2018 15:00 1294.69 0.00 -- 88.4 48.0
07/01/2018 14:00 1294.70 0.00 -- 86.6 56.0
07/01/2018 13:00 1294.70 0.00 -- 86.1 54.0
07/01/2018 12:00 1294.70 0.00 -- 83.3 65.0
07/01/2018 11:00 1294.69 0.00 -- 81.0 70.0
07/01/2018 10:00 1294.69 0.00 -- 79.8 71.0
07/01/2018 09:00 1294.69 0.00 -- 72.8 89.0
07/01/2018 08:00 1294.69 0.00 -- 69.1 99.0
07/01/2018 07:00 1294.69 0.00 -- 67.4 100.0
07/01/2018 06:00 1294.68 0.00 -- 66.4 100.0
07/01/2018 05:00 1294.69 0.00 -- 66.8 99.0
07/01/2018 04:00 1294.69 0.00 -- 68.2 92.0
07/01/2018 03:00 1294.69 0.00 -- 71.9 77.0
07/01/2018 02:00 1294.69 0.00 -- 69.8 87.0
07/01/2018 01:00 1294.68 0.00 -- 68.1 94.0
07/01/2018 00:00 1294.69 0.00 -- 68.7 95.0
06/30/2018 23:00 1294.68 0.00 -- 70.5 88.0
06/30/2018 22:00 1294.69 0.00 -- 72.9 78.0
06/30/2018 21:00 1294.68 0.00 -- 77.7 68.0
06/30/2018 20:00 1294.68 0.00 -- 85.0 48.0
06/30/2018 19:00 1294.68 0.00 -- 85.9 46.0
06/30/2018 18:00 1294.68 0.00 -- 86.1 45.0
06/30/2018 17:00 1294.68 0.00 -- 85.5 44.0
06/30/2018 16:00 1294.69 0.00 -- 85.0 40.0
06/30/2018 15:00 1294.68 0.00 -- 84.3 39.0
06/30/2018 14:00 1294.68 0.00 -- 81.8 43.0
06/30/2018 13:00 1294.69 0.00 -- 81.4 40.0
06/30/2018 12:00 1294.69 0.00 -- 80.9 45.0
06/30/2018 11:00 1294.70 0.00 -- 77.4 59.0
06/30/2018 10:00 1294.70 0.00 -- 74.8 67.0
06/30/2018 09:00 1294.70 0.00 -- 65.3 100.0
06/30/2018 08:00 1294.70 0.00 -- 62.0 100.0
06/30/2018 07:00 1294.70 0.00 -- 60.1 100.0
06/30/2018 06:00 1294.70 0.00 -- 60.1 100.0
06/30/2018 05:00 1294.70 0.00 -- 60.0 100.0
06/30/2018 04:00 1294.70 0.00 -- 60.7 100.0
06/30/2018 03:00 1294.70 0.00 -- 60.9 100.0
06/30/2018 02:00 1294.70 0.00 -- 61.6 100.0
06/30/2018 01:00 1294.70 0.00 -- 63.3 100.0
06/30/2018 00:00 1294.71 0.00 0.00 65.9 99.0
06/29/2018 23:00 1294.71 0.00 -- 67.0 92.0
06/29/2018 22:00 1294.70 0.00 -- 67.2 92.0
06/29/2018 21:00 1294.70 0.00 -- 72.5 79.0
06/29/2018 20:00 1294.70 0.00 -- 82.9 43.0
06/29/2018 19:00 1294.72 0.00 -- 83.3 37.0
06/29/2018 18:00 1294.71 0.00 -- 82.8 36.0
06/29/2018 17:00 1294.71 0.00 -- 82.4 37.0
06/29/2018 16:00 1294.72 0.00 -- 82.2 41.0
06/29/2018 15:00 1294.71 0.00 -- 80.2 44.0
06/29/2018 14:00 1294.71 0.00 -- 77.9 54.0
06/29/2018 13:00 1294.71 0.00 -- 76.1 55.0
06/29/2018 12:00 1294.72 0.00 -- 74.0 62.0
06/29/2018 11:00 1294.70 0.00 -- 72.0 78.0
06/29/2018 10:00 1294.70 0.00 -- 68.3 90.0
06/29/2018 09:00 1294.71 0.00 -- 65.4 100.0
06/29/2018 08:00 1294.70 0.00 -- 62.3 100.0
06/29/2018 07:00 1294.70 0.00 -- 62.3 100.0
06/29/2018 06:00 1294.70 0.00 -- 63.3 100.0
06/29/2018 05:00 1294.70 0.00 -- 61.4 100.0
06/29/2018 04:00 1294.70 0.00 -- 62.3 100.0
06/29/2018 03:00 1294.70 0.00 -- 64.2 100.0
06/29/2018 02:00 1294.70 0.00 -- 64.2 100.0
06/29/2018 01:00 1294.71 0.00 -- 63.8 100.0
06/29/2018 00:00 1294.70 0.00 0.00 64.5 100.0
06/28/2018 23:00 1294.70 0.00 -- 64.9 100.0
06/28/2018 22:00 1294.70 0.00 -- 66.6 100.0
06/28/2018 21:00 1294.70 0.00 -- 67.9 100.0
06/28/2018 20:00 1294.70 0.01 -- 68.6 100.0
06/28/2018 19:00 1294.69 0.00 -- 68.9 100.0
06/28/2018 18:00 1294.69 0.04 -- 68.0 100.0
06/28/2018 17:00 1294.69 0.00 -- 68.7 100.0
06/28/2018 16:00 1294.68 0.03 -- 68.6 100.0
06/28/2018 15:00 1294.69 0.04 -- 67.4 100.0
06/28/2018 14:00 1294.68 0.14 -- 66.0 100.0
06/28/2018 13:00 1294.66 0.01 -- 66.9 100.0
06/28/2018 12:00 1294.66 0.02 -- 66.1 100.0
06/28/2018 11:00 1294.65 0.10 -- 64.7 100.0
06/28/2018 10:00 1294.65 0.05 -- 64.4 100.0
06/28/2018 09:00 1294.63 0.09 -- 64.0 100.0
06/28/2018 08:00 1294.64 0.04 -- 62.9 100.0
06/28/2018 07:00 1294.63 0.01 -- 62.1 100.0
06/28/2018 06:00 1294.62 0.21 -- 61.2 100.0
06/28/2018 05:00 1294.61 0.00 -- 61.1 100.0
06/28/2018 04:00 1294.60 0.00 -- 60.3 100.0
06/28/2018 03:00 1294.61 0.05 -- 59.5 100.0
06/28/2018 02:00 1294.60 0.00 -- 58.6 100.0
06/28/2018 01:00 1294.61 0.16 -- 57.6 100.0
06/28/2018 00:00 1294.58 0.12 1.00 56.7 100.0
06/27/2018 23:00 1294.59 0.05 -- 57.1 100.0
06/27/2018 22:00 1294.57 0.01 -- 61.0 91.0
06/27/2018 21:00 1294.56 0.00 -- 63.5 77.0
06/27/2018 20:00 1294.59 0.00 -- 64.9 74.0
06/27/2018 19:00 1294.57 0.00 -- 65.7 69.0
06/27/2018 18:00 1294.56 0.00 -- 67.2 67.0
06/27/2018 17:00 1294.57 0.00 -- 67.4 64.0
06/27/2018 16:00 1294.57 0.00 -- 67.9 60.0
06/27/2018 15:00 1294.58 0.00 -- 68.6 60.0
06/27/2018 14:00 1294.58 0.00 -- 66.7 60.0
06/27/2018 13:00 1294.58 0.00 -- 66.1 62.0
06/27/2018 12:00 1294.58 0.00 -- 65.5 67.0
06/27/2018 11:00 1294.57 0.00 -- 62.5 77.0
06/27/2018 10:00 1294.58 0.00 -- 61.0 80.0
06/27/2018 09:00 1294.58 0.00 -- 58.5 91.0
06/27/2018 08:00 1294.58 0.00 -- 56.7 96.0
06/27/2018 07:00 1294.58 0.00 -- 53.9 99.0
06/27/2018 06:00 1294.59 0.00 -- 52.7 99.0
06/27/2018 05:00 1294.58 0.00 -- 53.9 93.0
06/27/2018 04:00 1294.59 0.00 -- 53.1 93.0
06/27/2018 03:00 1294.58 0.00 -- 53.3 86.0
06/27/2018 02:00 1294.59 0.00 -- 52.1 86.0
06/27/2018 01:00 1294.59 0.00 -- 51.5 88.0
06/27/2018 00:00 1294.60 0.00 0.18 53.9 80.0
06/26/2018 23:00 1294.60 0.00 -- 55.9 75.0
06/26/2018 22:00 1294.60 0.00 -- 59.5 64.0
06/26/2018 21:00 1294.60 0.00 -- 66.2 52.0
06/26/2018 20:00 1294.59 0.00 -- 71.2 40.0
06/26/2018 19:00 1294.58 0.00 -- 73.6 31.0
06/26/2018 18:00 1294.60 0.00 -- 73.4 30.0
06/26/2018 17:00 1294.59 0.00 -- 73.0 27.0
06/26/2018 16:00 1294.60 0.00 -- 72.2 26.0
06/26/2018 15:00 1294.60 0.00 -- 70.1 27.0
06/26/2018 14:00 1294.62 0.00 -- 67.8 28.0
06/26/2018 13:00 1294.62 0.00 -- 66.3 30.0
06/26/2018 12:00 1294.61 0.00 -- 65.2 30.0
06/26/2018 11:00 1294.62 0.00 -- 64.2 31.0
06/26/2018 10:00 1294.62 0.00 -- 61.6 43.0
06/26/2018 09:00 1294.61 0.00 -- 51.9 74.0
06/26/2018 08:00 1294.61 0.00 -- 44.4 99.0
06/26/2018 07:00 1294.61 0.00 -- 40.7 99.0
06/26/2018 06:00 1294.61 0.00 -- 40.9 99.0
06/26/2018 05:00 1294.61 0.00 -- 41.0 99.0
06/26/2018 04:00 1294.61 0.00 -- 43.0 99.0
06/26/2018 03:00 1294.61 0.00 -- 42.8 99.0
06/26/2018 02:00 1294.62 0.00 -- 44.3 98.0
06/26/2018 01:00 1294.61 0.00 -- 45.0 91.0
06/26/2018 00:00 1294.62 0.00 0.00 47.8 83.0
06/25/2018 23:00 1294.62 0.00 -- 49.2 71.0
06/25/2018 22:00 1294.62 0.00 -- 53.0 60.0
06/25/2018 21:00 1294.62 0.00 -- 62.2 39.0
06/25/2018 20:00 1294.64 0.00 -- 66.3 39.0
06/25/2018 19:00 1294.66 0.00 -- 66.9 33.0
06/25/2018 18:00 1294.64 0.00 -- 67.5 31.0
06/25/2018 17:00 1294.64 0.00 -- 66.3 35.0
06/25/2018 16:00 1294.65 0.00 -- 67.1 36.0
06/25/2018 15:00 1294.64 0.00 -- 66.6 37.0
06/25/2018 14:00 1294.67 0.00 -- 66.1 41.0
06/25/2018 13:00 1294.68 0.00 -- 64.8 47.0
06/25/2018 12:00 1294.65 0.00 -- 63.6 50.0
06/25/2018 11:00 1294.67 0.00 -- 61.4 61.0
06/25/2018 10:00 1294.66 0.00 -- 58.9 75.0
06/25/2018 09:00 1294.64 0.00 -- 57.4 84.0
06/25/2018 08:00 1294.66 0.00 -- 58.2 99.0
06/25/2018 07:00 1294.63 0.00 -- 57.8 100.0
06/25/2018 06:00 1294.64 0.00 -- 58.4 100.0
06/25/2018 05:00 1294.63 0.01 -- 58.0 100.0
06/25/2018 04:00 1294.64 0.00 -- 59.1 100.0
06/25/2018 03:00 1294.63 0.00 -- 58.7 100.0
06/25/2018 02:00 1294.63 0.00 -- 59.2 100.0
06/25/2018 01:00 1294.64 0.00 -- 59.8 100.0
06/25/2018 00:00 1294.63 0.00 0.01 60.6 100.0
06/24/2018 23:00 1294.63 0.09 -- 61.0 100.0
06/24/2018 22:00 1294.64 0.01 -- 62.5 100.0
06/24/2018 21:00 1294.63 0.00 -- 64.8 100.0
06/24/2018 20:00 1294.62 0.00 -- 66.6 100.0
06/24/2018 19:00 1294.62 0.00 -- 67.1 100.0
06/24/2018 18:00 1294.62 0.01 -- 67.6 100.0
06/24/2018 17:00 1294.61 0.00 -- 67.3 100.0
06/24/2018 16:00 1294.62 0.00 -- 70.8 70.0
06/24/2018 15:00 1294.62 0.00 -- 70.8 70.0
06/24/2018 14:00 1294.62 0.00 -- 68.4 78.0
06/24/2018 13:00 1294.62 0.00 -- 65.0 88.0
06/24/2018 12:00 1294.62 0.00 -- 65.1 86.0
06/24/2018 11:00 1294.61 0.00 -- 62.4 92.0
06/24/2018 10:00 1294.60 0.00 -- 57.5 100.0
06/24/2018 09:00 1294.62 0.00 -- 54.3 100.0
06/24/2018 08:00 1294.61 0.00 -- 52.6 100.0
06/24/2018 07:00 1294.61 0.00 -- 51.5 100.0
06/24/2018 06:00 1294.61 0.00 -- 51.4 100.0
06/24/2018 05:00 1294.61 0.00 -- 51.4 100.0
06/24/2018 04:00 1294.61 0.00 -- 50.9 100.0
06/24/2018 03:00 1294.61 0.00 -- 50.3 100.0
06/24/2018 02:00 1294.62 0.00 -- 50.7 100.0
06/24/2018 01:00 1294.62 0.00 -- 50.3 100.0
06/24/2018 00:00 1294.63 0.01 0.11 50.1 100.0
06/23/2018 23:00 1294.63 0.00 -- 50.0 100.0
06/23/2018 22:00 1294.62 0.00 -- 49.8 100.0
06/23/2018 21:00 1294.63 0.00 -- 50.2 100.0
06/23/2018 20:00 1294.63 0.00 -- 50.6 100.0
06/23/2018 19:00 1294.63 0.01 -- 51.0 100.0
06/23/2018 18:00 1294.63 0.02 -- 51.6 100.0
06/23/2018 17:00 1294.62 0.01 -- 52.5 99.0
06/23/2018 16:00 1294.63 0.00 -- 52.5 99.0
06/23/2018 15:00 1294.64 0.01 -- 51.9 97.0
06/23/2018 14:00 1294.63 0.02 -- 52.5 93.0
06/23/2018 13:00 1294.62 0.00 -- 56.1 78.0
06/23/2018 12:00 1294.62 0.00 -- 57.3 77.0
06/23/2018 11:00 1294.62 0.00 -- 55.8 78.0
06/23/2018 10:00 1294.62 0.00 -- 55.2 85.0
06/23/2018 09:00 1294.62 0.00 -- 53.9 99.0
06/23/2018 08:00 1294.62 0.00 -- 52.1 100.0
06/23/2018 07:00 1294.62 0.02 -- 51.3 100.0
06/23/2018 06:00 1294.61 0.00 -- 53.0 87.0
06/23/2018 05:00 1294.61 0.00 -- 54.0 72.0
06/23/2018 04:00 1294.61 0.00 -- 53.5 74.0
06/23/2018 03:00 1294.61 0.00 -- 55.8 80.0
06/23/2018 02:00 1294.61 0.00 -- 57.5 83.0
06/23/2018 01:00 1294.61 0.00 -- 56.8 83.0
06/23/2018 00:00 1294.61 0.00 0.10 58.4 84.0
06/22/2018 23:00 1294.62 0.00 -- 60.9 75.0
06/22/2018 22:00 1294.62 0.00 -- 63.3 70.0
06/22/2018 21:00 1294.62 0.00 -- 67.5 57.0
06/22/2018 20:00 1294.61 0.00 -- 72.1 49.0
06/22/2018 19:00 1294.61 0.00 -- 72.2 45.0
06/22/2018 18:00 1294.61 0.00 -- 75.1 38.0
06/22/2018 17:00 1294.61 0.00 -- 75.2 33.0
06/22/2018 16:00 1294.61 0.00 -- 74.4 32.0
06/22/2018 15:00 1294.62 0.00 -- 72.3 32.0
06/22/2018 14:00 1294.62 0.00 -- 70.8 32.0
06/22/2018 13:00 1294.62 0.00 -- 67.1 36.0
06/22/2018 12:00 1294.63 0.00 -- 65.6 47.0
06/22/2018 11:00 1294.63 0.00 -- 63.6 41.0
06/22/2018 10:00 1294.64 0.00 -- 60.2 51.0
06/22/2018 09:00 1294.63 0.00 -- 54.9 59.0
06/22/2018 08:00 1294.63 0.00 -- 45.3 91.0
06/22/2018 07:00 1294.63 0.00 -- 41.9 99.0
06/22/2018 06:00 1294.63 0.00 -- 43.5 99.0
06/22/2018 05:00 1294.63 0.00 -- 45.1 98.0
06/22/2018 04:00 1294.63 0.00 -- 46.8 90.0
06/22/2018 03:00 1294.63 0.00 -- 49.7 80.0
06/22/2018 02:00 1294.64 0.00 -- 52.8 62.0
06/22/2018 01:00 1294.64 0.00 -- 53.6 61.0
06/22/2018 00:00 1294.64 0.00 0.00 55.3 60.0
06/21/2018 23:00 1294.64 0.00 -- 56.7 57.0
06/21/2018 22:00 1294.63 0.00 -- 59.4 55.0
06/21/2018 21:00 1294.64 0.00 -- 67.6 41.0
06/21/2018 20:00 1294.65 0.00 -- 73.6 30.0
06/21/2018 19:00 1294.66 0.00 -- 75.6 33.0
06/21/2018 18:00 1294.66 0.00 -- 75.2 29.0
06/21/2018 17:00 1294.64 0.00 -- 74.4 36.0
06/21/2018 16:00 1294.65 0.00 -- 71.6 50.0
06/21/2018 15:00 1294.67 0.00 -- 71.0 49.0
06/21/2018 14:00 1294.64 0.00 -- 68.3 57.0
06/21/2018 13:00 1294.65 0.00 -- 67.6 66.0
06/21/2018 12:00 1294.67 0.00 -- 69.2 60.0
06/21/2018 11:00 1294.66 0.00 -- 68.8 58.0
06/21/2018 10:00 1294.65 0.00 -- 66.7 59.0
06/21/2018 09:00 1294.64 0.00 -- 60.2 77.0
06/21/2018 08:00 1294.64 0.00 -- 54.6 96.0
06/21/2018 07:00 1294.64 0.00 -- 52.6 95.0
06/21/2018 06:00 1294.64 0.00 -- 52.8 98.0
06/21/2018 05:00 1294.64 0.00 -- 52.5 93.0
06/21/2018 04:00 1294.63 0.00 -- 52.1 89.0
06/21/2018 03:00 1294.64 0.00 -- 53.0 89.0
06/21/2018 02:00 1294.64 0.00 -- 52.7 85.0
06/21/2018 01:00 1294.64 0.00 -- 53.9 83.0
06/21/2018 00:00 1294.64 0.00 0.00 55.4 78.0
06/20/2018 23:00 1294.63 0.00 -- 56.9 75.0
06/20/2018 22:00 1294.64 0.00 -- 60.3 67.0
06/20/2018 21:00 1294.64 0.00 -- 70.0 45.0
06/20/2018 20:00 1294.64 0.00 -- 71.0 38.0
06/20/2018 19:00 1294.63 0.00 -- 70.9 42.0
06/20/2018 18:00 1294.64 0.00 -- 71.4 38.0
06/20/2018 17:00 1294.64 0.00 -- 71.9 33.0
06/20/2018 16:00 1294.63 0.00 -- 71.2 43.0
06/20/2018 15:00 1294.64 0.00 -- 69.0 47.0
06/20/2018 14:00 1294.64 0.00 -- 70.4 43.0
06/20/2018 13:00 1294.64 0.00 -- 69.0 44.0
06/20/2018 12:00 1294.64 0.00 -- 68.7 40.0
06/20/2018 11:00 1294.62 0.00 -- 67.5 45.0
06/20/2018 10:00 1294.65 0.00 -- 64.5 49.0
06/20/2018 09:00 1294.65 0.00 -- 54.1 96.0
06/20/2018 08:00 1294.65 0.00 -- 47.6 99.0
06/20/2018 07:00 1294.65 0.00 -- 45.6 100.0
06/20/2018 06:00 1294.65 0.00 -- 45.4 99.0
06/20/2018 05:00 1294.65 0.00 -- 46.9 100.0
06/20/2018 04:00 1294.65 0.00 -- 47.9 99.0
06/20/2018 03:00 1294.65 0.00 -- 48.5 99.0
06/20/2018 02:00 1294.65 0.00 -- 50.5 97.0
06/20/2018 01:00 1294.66 0.00 -- 52.9 87.0
06/20/2018 00:00 1294.65 0.00 0.00 53.7 86.0
06/19/2018 23:00 1294.66 0.00 -- 55.9 76.0
06/19/2018 22:00 1294.66 0.00 -- 58.7 67.0
06/19/2018 21:00 1294.66 0.00 -- 66.2 50.0
06/19/2018 20:00 1294.67 0.00 -- 71.8 38.0
06/19/2018 19:00 1294.67 0.00 -- 73.1 33.0
06/19/2018 18:00 1294.68 0.00 -- 72.2 32.0
06/19/2018 17:00 1294.68 0.00 -- 71.1 39.0
06/19/2018 16:00 1294.71 0.00 -- 70.4 38.0
06/19/2018 15:00 1294.70 0.00 -- 69.2 42.0
06/19/2018 14:00 1294.71 0.00 -- 68.3 48.0
06/19/2018 13:00 1294.68 0.00 -- 66.3 51.0
06/19/2018 12:00 1294.70 0.00 -- 66.3 58.0
06/19/2018 11:00 1294.69 0.00 -- 65.9 59.0
06/19/2018 10:00 1294.67 0.00 -- 64.5 69.0
06/19/2018 09:00 1294.69 0.00 -- 63.7 79.0
06/19/2018 08:00 1294.70 0.00 -- 63.3 91.0
06/19/2018 07:00 1294.67 0.00 -- 63.9 91.0
06/19/2018 06:00 1294.68 0.00 -- 64.7 99.0
06/19/2018 05:00 1294.67 0.00 -- 66.1 100.0
06/19/2018 04:00 1294.69 0.02 -- 67.5 100.0
06/19/2018 03:00 1294.66 0.00 -- 69.5 100.0
06/19/2018 02:00 1294.65 0.00 -- 69.5 100.0
06/19/2018 01:00 1294.64 0.00 -- 70.0 100.0
06/19/2018 00:00 1294.63 0.00 0.02 70.6 100.0
06/18/2018 23:00 1294.63 0.00 -- 70.5 100.0
06/18/2018 22:00 1294.64 0.00 -- 69.1 100.0
06/18/2018 21:00 1294.64 0.00 -- 68.5 100.0
06/18/2018 20:00 1294.63 0.01 -- 69.1 100.0
06/18/2018 19:00 1294.62 0.32 -- 69.2 100.0
06/18/2018 18:00 1294.63 0.00 -- 84.4 58.0
06/18/2018 17:00 1294.60 0.00 -- 85.2 57.0
06/18/2018 16:00 1294.60 0.00 -- 84.8 56.0
06/18/2018 15:00 1294.61 0.00 -- 82.0 60.0
06/18/2018 14:00 1294.60 0.00 -- 79.0 62.0
06/18/2018 13:00 1294.61 0.00 -- 77.6 62.0
06/18/2018 12:00 1294.61 0.00 -- 75.9 62.0
06/18/2018 11:00 1294.62 0.00 -- 72.5 64.0
06/18/2018 10:00 1294.60 0.00 -- 69.5 66.0
06/18/2018 09:00 1294.58 0.00 -- 67.0 66.0
06/18/2018 08:00 1294.60 0.00 -- 64.9 65.0
06/18/2018 07:00 1294.61 0.00 -- 64.7 63.0
06/18/2018 06:00 1294.61 0.00 -- 65.2 61.0
06/18/2018 05:00 1294.61 0.00 -- 65.6 61.0
06/18/2018 04:00 1294.62 0.00 -- 65.0 65.0
06/18/2018 03:00 1294.62 0.00 -- 62.4 72.0
06/18/2018 02:00 1294.63 0.00 -- 62.5 70.0
06/18/2018 01:00 1294.64 0.00 -- 59.0 78.0
06/18/2018 00:00 1294.64 0.00 0.33 60.2 84.0
06/17/2018 23:00 1294.63 0.00 -- 63.8 67.0
06/17/2018 22:00 1294.63 0.00 -- 67.1 65.0
06/17/2018 21:00 1294.64 0.00 -- 72.3 54.0
06/17/2018 20:00 1294.64 0.00 -- 78.6 47.0
06/17/2018 19:00 1294.63 0.00 -- 83.4 32.0
06/17/2018 18:00 1294.64 0.00 -- 82.5 29.0
06/17/2018 17:00 1294.63 0.00 -- 82.1 25.0
06/17/2018 16:00 1294.64 0.00 -- 81.9 25.0
06/17/2018 15:00 1294.63 0.00 -- 79.9 32.0
06/17/2018 14:00 1294.63 0.00 -- 79.4 29.0
06/17/2018 13:00 1294.64 0.00 -- 78.7 31.0
06/17/2018 12:00 1294.64 0.00 -- 75.7 32.0
06/17/2018 11:00 1294.64 0.00 -- 74.7 37.0
06/17/2018 10:00 1294.64 0.00 -- 69.7 48.0
06/17/2018 09:00 1294.64 0.00 -- 57.6 79.0
06/17/2018 08:00 1294.64 0.00 -- 50.3 99.0
06/17/2018 07:00 1294.64 0.00 -- 48.5 100.0
06/17/2018 06:00 1294.64 0.00 -- 49.6 100.0
06/17/2018 05:00 1294.64 0.00 -- 49.8 99.0
06/17/2018 04:00 1294.64 0.00 -- 51.6 100.0
06/17/2018 03:00 1294.64 0.00 -- 51.4 99.0
06/17/2018 02:00 1294.64 0.00 -- 53.0 99.0
06/17/2018 01:00 1294.64 0.00 -- 53.8 95.0
06/17/2018 00:00 1294.64 0.00 0.00 55.0 86.0
06/16/2018 23:00 1294.64 0.00 -- 57.6 78.0
06/16/2018 22:00 1294.64 0.00 -- 60.8 69.0
06/16/2018 21:00 1294.64 0.00 -- 69.1 51.0
06/16/2018 20:00 1294.64 0.00 -- 77.1 30.0
06/16/2018 19:00 1294.65 0.00 -- 77.0 32.0
06/16/2018 18:00 1294.65 0.00 -- 76.2 33.0
06/16/2018 17:00 1294.66 0.00 -- 73.4 37.0
06/16/2018 16:00 1294.66 0.00 -- 74.3 36.0
06/16/2018 15:00 1294.65 0.00 -- 74.3 36.0
06/16/2018 14:00 1294.65 0.00 -- 72.7 34.0
06/16/2018 13:00 1294.65 0.00 -- 71.6 37.0
06/16/2018 12:00 1294.66 0.00 -- 70.0 44.0
06/16/2018 11:00 1294.66 0.00 -- 67.2 49.0
06/16/2018 10:00 1294.65 0.00 -- 64.5 54.0
06/16/2018 09:00 1294.65 0.00 -- 60.1 68.0
06/16/2018 08:00 1294.66 0.00 -- 51.4 90.0
06/16/2018 07:00 1294.65 0.00 -- 46.0 99.0
06/16/2018 06:00 1294.65 0.00 -- 46.2 99.0
06/16/2018 05:00 1294.65 0.00 -- 46.2 99.0
06/16/2018 04:00 1294.64 0.00 -- 45.3 99.0
06/16/2018 03:00 1294.65 0.00 -- 45.8 99.0
06/16/2018 02:00 1294.65 0.00 -- 47.8 99.0
06/16/2018 01:00 1294.65 0.00 -- 47.6 99.0
06/16/2018 00:00 1294.65 0.00 0.00 49.1 99.0
06/15/2018 23:00 1294.66 0.00 -- 51.3 98.0
06/15/2018 22:00 1294.65 0.00 -- 54.5 89.0
06/15/2018 21:00 1294.65 0.00 -- 61.6 66.0
06/15/2018 20:00 1294.66 0.00 -- 69.2 41.0
06/15/2018 19:00 1294.67 0.00 -- 68.2 40.0
06/15/2018 18:00 1294.66 0.00 -- 67.4 39.0
06/15/2018 17:00 1294.66 0.00 -- 64.7 45.0
06/15/2018 16:00 1294.65 0.00 -- 61.8 56.0
06/15/2018 15:00 1294.66 0.00 -- 57.0 76.0
06/15/2018 14:00 1294.66 0.00 -- 53.8 82.0
06/15/2018 13:00 1294.67 0.00 -- 52.9 88.0
06/15/2018 12:00 1294.65 0.00 -- 53.1 84.0
06/15/2018 11:00 1294.66 0.00 -- 54.3 82.0
06/15/2018 10:00 1294.67 0.00 -- 54.7 81.0
06/15/2018 09:00 1294.67 0.00 -- 55.1 86.0
06/15/2018 08:00 1294.66 0.00 -- 54.1 92.0
06/15/2018 07:00 1294.66 0.00 -- 54.1 96.0
06/15/2018 06:00 1294.66 0.00 -- 53.9 99.0
06/15/2018 05:00 1294.66 0.00 -- 54.7 98.0
06/15/2018 04:00 1294.67 0.00 -- 55.8 84.0
06/15/2018 03:00 1294.66 0.00 -- 56.4 85.0
06/15/2018 02:00 1294.66 0.00 -- 57.1 79.0
06/15/2018 01:00 1294.66 0.00 -- 57.7 76.0
06/15/2018 00:00 1294.66 0.00 0.00 58.3 75.0
06/14/2018 23:00 1294.66 0.00 -- 58.3 74.0
06/14/2018 22:00 1294.66 0.00 -- 59.4 73.0
06/14/2018 21:00 1294.66 0.00 -- 60.1 70.0
06/14/2018 20:00 1294.66 0.00 -- 60.7 70.0
06/14/2018 19:00 1294.65 0.00 -- 61.3 67.0
06/14/2018 18:00 1294.65 0.00 -- 61.9 64.0
06/14/2018 17:00 1294.67 0.00 -- 62.3 63.0
06/14/2018 16:00 1294.63 0.00 -- 63.2 62.0
06/14/2018 15:00 1294.67 0.00 -- 62.9 61.0
06/14/2018 14:00 1294.68 0.00 -- 64.2 57.0
06/14/2018 13:00 1294.66 0.00 -- 63.6 57.0
06/14/2018 12:00 1294.67 0.00 -- 65.4 54.0
06/14/2018 11:00 1294.64 0.00 -- 64.9 53.0
06/14/2018 10:00 1294.68 0.00 -- 64.4 54.0
06/14/2018 09:00 1294.64 0.00 -- 61.9 62.0
06/14/2018 08:00 1294.64 0.00 -- 61.3 61.0
06/14/2018 07:00 1294.67 0.00 -- 60.9 65.0
06/14/2018 06:00 1294.66 0.00 -- 61.3 65.0
06/14/2018 05:00 1294.65 0.00 -- 62.1 64.0
06/14/2018 04:00 1294.66 0.00 -- 63.3 68.0
06/14/2018 03:00 1294.67 0.00 -- 64.1 72.0
06/14/2018 02:00 1294.67 0.00 -- 64.4 95.0
06/14/2018 01:00 1294.65 0.00 -- 64.4 99.0
06/14/2018 00:00 1294.64 0.00 0.00 64.6 99.0
06/13/2018 23:00 1294.65 0.00 -- 64.2 99.0
06/13/2018 22:00 1294.66 0.00 -- 64.4 98.0
06/13/2018 21:00 1294.65 0.00 -- 64.7 93.0
06/13/2018 20:00 1294.65 0.00 -- 64.7 92.0
06/13/2018 19:00 1294.65 0.00 -- 64.4 91.0
06/13/2018 18:00 1294.65 0.00 -- 64.8 89.0
06/13/2018 17:00 1294.65 0.00 -- 64.5 88.0
06/13/2018 16:00 1294.64 0.00 -- 64.0 89.0
06/13/2018 15:00 1294.65 0.00 -- 63.1 92.0
06/13/2018 14:00 1294.64 0.00 -- 64.4 86.0
06/13/2018 13:00 1294.66 0.00 -- 64.2 77.0
06/13/2018 12:00 1294.65 0.00 -- 64.2 66.0
06/13/2018 11:00 1294.64 0.00 -- 64.5 62.0
06/13/2018 10:00 1294.64 0.00 -- 62.5 62.0
06/13/2018 09:00 1294.65 0.00 -- 57.8 67.0
06/13/2018 08:00 1294.65 0.00 -- 55.1 70.0
06/13/2018 07:00 1294.65 0.00 -- 53.5 71.0
06/13/2018 06:00 1294.65 0.00 -- 53.9 70.0
06/13/2018 05:00 1294.66 0.00 -- 54.6 68.0
06/13/2018 04:00 1294.64 0.00 -- 55.5 67.0
06/13/2018 03:00 1294.65 0.00 -- 57.0 65.0
06/13/2018 02:00 1294.63 0.00 -- 57.9 61.0
06/13/2018 01:00 1294.62 0.00 -- 59.2 59.0
06/13/2018 00:00 1294.65 0.00 0.00 61.7 58.0
06/12/2018 23:00 1294.64 0.00 -- 64.0 54.0
06/12/2018 22:00 1294.65 0.00 -- 65.9 49.0
06/12/2018 21:00 1294.65 0.00 -- 69.1 43.0
06/12/2018 20:00 1294.65 0.00 -- 71.7 37.0
06/12/2018 19:00 1294.64 0.00 -- 74.7 31.0
06/12/2018 18:00 1294.66 0.00 -- 75.9 30.0
06/12/2018 17:00 1294.66 0.00 -- 75.1 32.0
06/12/2018 16:00 1294.67 0.00 -- 74.0 34.0
06/12/2018 15:00 1294.67 0.00 -- 72.7 37.0
06/12/2018 14:00 1294.63 0.00 -- 70.8 44.0
06/12/2018 13:00 1294.65 0.00 -- 68.3 49.0
06/12/2018 12:00 1294.68 0.00 -- 65.6 56.0
06/12/2018 11:00 1294.67 0.00 -- 62.0 58.0
06/12/2018 10:00 1294.66 0.00 -- 57.2 60.0
06/12/2018 09:00 1294.66 0.00 -- 52.9 66.0
06/12/2018 08:00 1294.66 0.00 -- 49.6 73.0
06/12/2018 07:00 1294.67 0.00 -- 46.3 82.0
06/12/2018 06:00 1294.68 0.00 -- 46.3 82.0
06/12/2018 05:00 1294.67 0.00 -- 48.1 75.0
06/12/2018 04:00 1294.66 0.00 -- 49.6 70.0
06/12/2018 03:00 1294.66 0.00 -- 51.3 68.0
06/12/2018 02:00 1294.66 0.00 -- 52.7 64.0
06/12/2018 01:00 1294.66 0.00 -- 53.9 65.0
06/12/2018 00:00 1294.68 0.00 0.00 49.9 86.0
06/11/2018 23:00 1294.68 0.00 -- 52.3 75.0
06/11/2018 22:00 1294.67 0.00 -- 56.4 64.0
06/11/2018 21:00 1294.69 0.00 -- 61.3 57.0
06/11/2018 20:00 1294.69 0.00 -- 69.0 39.0
06/11/2018 19:00 1294.69 0.00 -- 68.2 43.0
06/11/2018 18:00 1294.69 0.00 -- 66.0 40.0
06/11/2018 17:00 1294.69 0.00 -- 65.5 40.0
06/11/2018 16:00 1294.70 0.00 -- 66.7 37.0
06/11/2018 15:00 1294.69 0.00 -- 65.8 37.0
06/11/2018 14:00 1294.70 0.00 -- 63.4 43.0
06/11/2018 13:00 1294.70 0.00 -- 60.8 54.0
06/11/2018 12:00 1294.70 0.00 -- 60.7 57.0
06/11/2018 11:00 1294.71 0.00 -- 58.8 58.0
06/11/2018 10:00 1294.71 0.00 -- 57.2 60.0
06/11/2018 09:00 1294.71 0.00 -- 53.0 66.0
06/11/2018 08:00 1294.72 0.00 -- 51.6 59.0
06/11/2018 07:00 1294.71 0.00 -- 50.1 57.0
06/11/2018 06:00 1294.71 0.00 -- 51.4 64.0
06/11/2018 05:00 1294.71 0.00 -- 47.4 83.0
06/11/2018 04:00 1294.70 0.00 -- 48.0 90.0
06/11/2018 03:00 1294.71 0.00 -- 49.6 77.0
06/11/2018 02:00 1294.70 0.00 -- 47.1 91.0
06/11/2018 01:00 1294.71 0.00 -- 48.6 82.0
06/11/2018 00:00 1294.71 0.00 0.00 50.0 80.0
06/10/2018 23:00 1294.71 0.00 -- 53.1 68.0
06/10/2018 22:00 1294.70 0.00 -- 55.9 62.0
06/10/2018 21:00 1294.70 0.00 -- 63.2 42.0
06/10/2018 20:00 1294.73 0.00 -- 69.8 29.0
06/10/2018 19:00 1294.72 0.00 -- 72.4 31.0
06/10/2018 18:00 1294.72 0.00 -- 72.3 27.0
06/10/2018 17:00 1294.72 0.00 -- 70.6 25.0
06/10/2018 16:00 1294.71 0.00 -- 69.9 23.0
06/10/2018 15:00 1294.72 0.00 -- 68.4 21.0
06/10/2018 14:00 1294.73 0.00 -- 66.6 22.0
06/10/2018 13:00 1294.74 0.00 -- 64.4 32.0
06/10/2018 12:00 1294.73 0.00 -- 63.4 28.0
06/10/2018 11:00 1294.74 0.00 -- 62.4 28.0
06/10/2018 10:00 1294.73 0.00 -- 60.1 41.0
06/10/2018 09:00 1294.72 0.00 -- 52.1 80.0
06/10/2018 08:00 1294.72 0.00 -- 45.8 99.0
06/10/2018 07:00 1294.72 0.00 -- 42.4 99.0
06/10/2018 06:00 1294.72 0.00 -- 41.8 99.0
06/10/2018 05:00 1294.72 0.00 -- 42.4 99.0
06/10/2018 04:00 1294.73 0.00 -- 44.6 99.0
06/10/2018 03:00 1294.72 0.00 -- 46.3 99.0
06/10/2018 02:00 1294.72 0.00 -- 49.2 99.0
06/10/2018 01:00 1294.72 0.00 -- 50.9 97.0
06/10/2018 00:00 1294.73 0.00 0.00 52.4 98.0
06/09/2018 23:00 1294.73 0.00 -- 55.9 85.0
06/09/2018 22:00 1294.73 0.00 -- 59.1 72.0
06/09/2018 21:00 1294.73 0.00 -- 65.5 58.0
06/09/2018 20:00 1294.72 0.00 -- 71.5 47.0
06/09/2018 19:00 1294.73 0.00 -- 69.2 45.0
06/09/2018 18:00 1294.73 0.00 -- 69.5 40.0
06/09/2018 17:00 1294.72 0.00 -- 71.2 38.0
06/09/2018 16:00 1294.72 0.00 -- 70.3 36.0
06/09/2018 15:00 1294.75 0.00 -- 70.5 35.0
06/09/2018 14:00 1294.73 0.00 -- 69.5 35.0
06/09/2018 13:00 1294.74 0.00 -- 67.9 38.0
06/09/2018 12:00 1294.73 0.00 -- 67.0 40.0
06/09/2018 11:00 1294.74 0.00 -- 64.5 45.0
06/09/2018 10:00 1294.75 0.00 -- 62.9 44.0
06/09/2018 09:00 1294.73 0.00 -- 53.8 80.0
06/09/2018 08:00 1294.73 0.00 -- 47.0 99.0
06/09/2018 07:00 1294.73 0.00 -- 44.1 100.0
06/09/2018 06:00 1294.73 0.00 -- 45.0 100.0
06/09/2018 05:00 1294.74 0.00 -- 47.3 99.0
06/09/2018 04:00 1294.74 0.00 -- 49.8 100.0
06/09/2018 03:00 1294.74 0.00 -- 51.5 100.0
06/09/2018 02:00 1294.74 0.00 -- 53.2 99.0
06/09/2018 01:00 1294.74 0.00 -- 53.1 99.0
06/09/2018 00:00 1294.74 0.00 0.00 54.4 98.0
06/08/2018 23:00 1294.74 0.00 -- 56.6 91.0
06/08/2018 22:00 1294.74 0.00 -- 59.2 79.0
06/08/2018 21:00 1294.74 0.00 -- 62.5 70.0
06/08/2018 20:00 1294.74 0.00 -- 67.4 58.0
06/08/2018 19:00 1294.75 0.00 -- 70.9 50.0
06/08/2018 18:00 1294.75 0.00 -- 73.8 38.0
06/08/2018 17:00 1294.75 0.00 -- 72.3 43.0
06/08/2018 16:00 1294.77 0.00 -- 72.4 44.0
06/08/2018 15:00 1294.76 0.00 -- 70.5 45.0
06/08/2018 14:00 1294.78 0.00 -- 69.8 54.0
06/08/2018 13:00 1294.75 0.00 -- 67.4 55.0
06/08/2018 12:00 1294.75 0.00 -- 67.1 54.0
06/08/2018 11:00 1294.76 0.00 -- 65.4 60.0
06/08/2018 10:00 1294.75 0.00 -- 64.0 60.0
06/08/2018 09:00 1294.75 0.00 -- 55.4 90.0
06/08/2018 08:00 1294.74 0.00 -- 50.5 100.0
06/08/2018 07:00 1294.74 0.00 -- 50.0 100.0
06/08/2018 06:00 1294.74 0.00 -- 50.1 99.0
06/08/2018 05:00 1294.74 0.00 -- 51.6 99.0
06/08/2018 04:00 1294.73 0.00 -- 52.4 97.0
06/08/2018 03:00 1294.74 0.00 -- 53.8 90.0
06/08/2018 02:00 1294.74 0.00 -- 56.2 84.0
06/08/2018 01:00 1294.74 0.00 -- 57.4 81.0
06/08/2018 00:00 1294.73 0.00 0.00 58.4 84.0
06/07/2018 23:00 1294.75 0.00 -- 58.2 86.0
06/07/2018 22:00 1294.75 0.00 -- 59.3 82.0
06/07/2018 21:00 1294.75 0.00 -- 60.9 75.0
06/07/2018 20:00 1294.75 0.00 -- 62.5 69.0
06/07/2018 19:00 1294.73 0.00 -- 65.4 62.0
06/07/2018 18:00 1294.74 0.00 -- 62.3 66.0
06/07/2018 17:00 1294.72 0.00 -- 64.1 60.0
06/07/2018 16:00 1294.74 0.00 -- 63.1 56.0
06/07/2018 15:00 1294.73 0.00 -- 63.0 49.0
06/07/2018 14:00 1294.73 0.00 -- 62.8 57.0
06/07/2018 13:00 1294.74 0.00 -- 62.8 56.0
06/07/2018 12:00 1294.73 0.00 -- 61.3 63.0
06/07/2018 11:00 1294.74 0.00 -- 60.1 71.0
06/07/2018 10:00 1294.75 0.00 -- 56.8 83.0
06/07/2018 09:00 1294.75 0.00 -- 53.6 99.0
06/07/2018 08:00 1294.75 0.00 -- 51.7 100.0
06/07/2018 07:00 1294.76 0.00 -- 49.4 100.0
06/07/2018 06:00 1294.76 0.00 -- 47.8 100.0
06/07/2018 05:00 1294.76 0.00 -- 47.2 100.0
06/07/2018 04:00 1294.76 0.00 -- 47.4 100.0
06/07/2018 03:00 1294.76 0.00 -- 46.9 100.0
06/07/2018 02:00 1294.76 0.00 -- 46.6 100.0
06/07/2018 01:00 1294.76 0.00 -- 48.5 100.0
06/07/2018 00:00 1294.76 0.00 0.00 50.5 100.0
06/06/2018 23:00 1294.76 0.00 -- 51.9 98.0
06/06/2018 22:00 1294.76 0.00 -- 53.4 90.0
06/06/2018 21:00 1294.76 0.00 -- 57.8 73.0
06/06/2018 20:00 1294.76 0.00 -- 64.4 55.0
06/06/2018 19:00 1294.76 0.00 -- 61.3 57.0
06/06/2018 18:00 1294.77 0.00 -- 62.1 51.0
06/06/2018 17:00 1294.77 0.00 -- 61.6 53.0
06/06/2018 16:00 1294.77 0.00 -- 61.2 56.0
06/06/2018 15:00 1294.77 0.00 -- 60.6 52.0
06/06/2018 14:00 1294.76 0.00 -- 58.6 58.0
06/06/2018 13:00 1294.76 0.00 -- 58.4 57.0
06/06/2018 12:00 1294.76 0.00 -- 57.6 64.0
06/06/2018 11:00 1294.77 0.00 -- 57.4 59.0
06/06/2018 10:00 1294.77 0.00 -- 55.8 68.0
06/06/2018 09:00 1294.77 0.00 -- 50.4 92.0
06/06/2018 08:00 1294.77 0.00 -- 45.4 100.0
06/06/2018 07:00 1294.77 0.00 -- 41.0 100.0
06/06/2018 06:00 1294.76 0.00 -- 42.0 100.0
06/06/2018 05:00 1294.76 0.00 -- 41.9 100.0
06/06/2018 04:00 1294.76 0.00 -- 43.4 100.0
06/06/2018 03:00 1294.77 0.00 -- 44.6 100.0
06/06/2018 02:00 1294.77 0.00 -- 46.6 99.0
06/06/2018 01:00 1294.77 0.00 -- 48.0 99.0
06/06/2018 00:00 1294.76 0.00 0.00 48.2 99.0
06/05/2018 23:00 1294.77 0.00 -- 49.9 94.0
06/05/2018 22:00 1294.76 0.00 -- 49.8 96.0
06/05/2018 21:00 1294.76 0.00 -- 52.5 79.0
06/05/2018 20:00 1294.77 0.00 -- 53.5 79.0
06/05/2018 19:00 1294.77 0.00 -- 53.7 75.0
06/05/2018 18:00 1294.78 0.00 -- 53.6 80.0
06/05/2018 17:00 1294.77 0.00 -- 56.5 63.0
06/05/2018 16:00 1294.76 0.00 -- 57.4 75.0
06/05/2018 15:00 1294.75 0.04 -- 53.5 99.0
06/05/2018 14:00 1294.76 0.00 -- 54.9 83.0
06/05/2018 13:00 1294.74 0.00 -- 56.2 72.0
06/05/2018 12:00 1294.76 0.00 -- 56.0 76.0
06/05/2018 11:00 1294.76 0.00 -- 56.0 73.0
06/05/2018 10:00 1294.75 0.00 -- 52.1 87.0
06/05/2018 09:00 1294.75 0.00 -- 47.5 99.0
06/05/2018 08:00 1294.74 0.00 -- 45.2 100.0
06/05/2018 07:00 1294.75 0.01 -- 44.1 100.0
06/05/2018 06:00 1294.76 0.00 -- 43.4 100.0
06/05/2018 05:00 1294.76 0.00 -- 43.9 100.0
06/05/2018 04:00 1294.76 0.00 -- 45.8 100.0
06/05/2018 03:00 1294.75 0.00 -- 46.3 100.0
06/05/2018 02:00 1294.75 0.01 -- 45.4 100.0
06/05/2018 01:00 1294.75 0.00 -- 44.9 100.0
06/05/2018 00:00 1294.75 0.00 0.06 45.3 100.0
06/04/2018 23:00 1294.75 0.00 -- 46.0 100.0
06/04/2018 22:00 1294.75 0.00 -- 46.2 100.0
06/04/2018 21:00 1294.75 0.00 -- 46.4 100.0
06/04/2018 20:00 1294.75 0.00 -- 47.1 100.0
06/04/2018 19:00 1294.75 0.00 -- 47.1 100.0
06/04/2018 18:00 1294.75 0.00 -- 47.6 100.0
06/04/2018 17:00 1294.75 0.01 -- 47.6 100.0
06/04/2018 16:00 1294.75 0.01 -- 47.5 100.0
06/04/2018 15:00 1294.75 0.00 -- 46.8 100.0
06/04/2018 14:00 1294.76 0.01 -- 46.3 100.0
06/04/2018 13:00 1294.75 0.02 -- 46.1 100.0
06/04/2018 12:00 1294.75 0.04 -- 46.0 100.0
06/04/2018 11:00 1294.73 0.06 -- 44.7 100.0
06/04/2018 10:00 1294.74 0.03 -- 43.9 100.0
06/04/2018 09:00 1294.74 0.11 -- 43.1 100.0
06/04/2018 08:00 1294.72 0.06 -- 43.0 100.0
06/04/2018 07:00 1294.71 0.17 -- 42.5 100.0
06/04/2018 06:00 1294.70 0.03 -- 41.9 99.0
06/04/2018 05:00 1294.70 0.00 -- 42.6 92.0
06/04/2018 04:00 1294.70 0.00 -- 43.5 84.0
06/04/2018 03:00 1294.71 0.00 -- 43.3 83.0
06/04/2018 02:00 1294.70 0.00 -- 43.7 78.0
06/04/2018 01:00 1294.70 0.00 -- 45.2 66.0
06/04/2018 00:00 1294.70 0.00 0.55 46.4 56.0
06/03/2018 23:00 1294.70 0.00 -- 47.8 63.0
06/03/2018 22:00 1294.71 0.00 -- 49.6 54.0
06/03/2018 21:00 1294.70 0.00 -- 52.2 48.0
06/03/2018 20:00 1294.69 0.00 -- 57.1 38.0
06/03/2018 19:00 1294.71 0.00 -- 62.9 37.0
06/03/2018 18:00 1294.70 0.00 -- 66.0 41.0
06/03/2018 17:00 1294.71 0.00 -- 67.1 39.0
06/03/2018 16:00 1294.71 0.00 -- 66.9 42.0
06/03/2018 15:00 1294.72 0.00 -- 66.7 41.0
06/03/2018 14:00 1294.70 0.00 -- 63.9 39.0
06/03/2018 13:00 1294.71 0.00 -- 61.5 38.0
06/03/2018 12:00 1294.72 0.00 -- 59.8 34.0
06/03/2018 11:00 1294.72 0.00 -- 57.4 44.0
06/03/2018 10:00 1294.72 0.00 -- 56.2 48.0
06/03/2018 09:00 1294.72 0.00 -- 52.1 60.0
06/03/2018 08:00 1294.73 0.00 -- 50.9 84.0
06/03/2018 07:00 1294.72 0.00 -- 48.6 91.0
06/03/2018 06:00 1294.71 0.00 -- 49.3 86.0
06/03/2018 05:00 1294.72 0.00 -- 50.8 87.0
06/03/2018 04:00 1294.72 0.00 -- 52.5 86.0
06/03/2018 03:00 1294.72 0.00 -- 54.6 86.0
06/03/2018 02:00 1294.72 0.00 -- 56.6 88.0
06/03/2018 01:00 1294.72 0.00 -- 57.8 78.0
06/03/2018 00:00 1294.72 0.00 0.00 58.1 76.0
06/02/2018 23:00 1294.72 0.00 -- 59.9 71.0
06/02/2018 22:00 1294.73 0.00 -- 62.2 64.0
06/02/2018 21:00 1294.74 0.00 -- 66.9 55.0
06/02/2018 20:00 1294.74 0.00 -- 72.8 54.0
06/02/2018 19:00 1294.76 0.00 -- 76.1 50.0
06/02/2018 18:00 1294.73 0.00 -- 76.7 46.0
06/02/2018 17:00 1294.76 0.00 -- 76.2 50.0
06/02/2018 16:00 1294.76 0.00 -- 75.4 51.0
06/02/2018 15:00 1294.76 0.00 -- 74.4 58.0
06/02/2018 14:00 1294.76 0.00 -- 70.5 74.0
06/02/2018 13:00 1294.75 0.00 -- 73.6 66.0
06/02/2018 12:00 1294.74 0.00 -- 71.7 75.0
06/02/2018 11:00 1294.75 0.00 -- 71.2 81.0
06/02/2018 10:00 1294.75 0.00 -- 69.1 87.0
06/02/2018 09:00 1294.74 0.00 -- 68.8 92.0
06/02/2018 08:00 1294.75 0.00 -- 67.5 99.0
06/02/2018 07:00 1294.75 0.00 -- 65.7 100.0
06/02/2018 06:00 1294.73 0.00 -- 64.5 100.0
06/02/2018 05:00 1294.74 0.00 -- 65.4 100.0
06/02/2018 04:00 1294.73 0.00 -- 65.9 100.0
06/02/2018 03:00 1294.73 0.00 -- 65.9 100.0
06/02/2018 02:00 1294.74 0.00 -- 65.9 100.0
06/02/2018 01:00 1294.74 0.00 -- 67.4 100.0
06/02/2018 00:00 1294.74 0.00 0.00 67.9 100.0
06/01/2018 23:00 1294.73 0.00 -- 68.2 100.0
06/01/2018 22:00 1294.72 0.00 -- 68.4 100.0
06/01/2018 21:00 1294.74 0.00 -- 71.7 100.0
06/01/2018 20:00 1294.73 0.00 -- 75.9 77.0
06/01/2018 19:00 1294.73 0.00 -- 78.0 69.0
06/01/2018 18:00 1294.72 0.00 -- 77.5 68.0
06/01/2018 17:00 1294.73 0.00 -- 77.2 69.0
06/01/2018 16:00 1294.73 0.00 -- 74.2 80.0
06/01/2018 15:00 1294.72 0.00 -- 70.8 93.0
06/01/2018 14:00 1294.72 0.00 -- 69.6 99.0
06/01/2018 13:00 1294.72 0.00 -- 67.7 100.0
06/01/2018 12:00 1294.73 0.03 -- 66.6 100.0
06/01/2018 11:00 1294.73 0.00 -- 66.0 100.0
06/01/2018 10:00 1294.72 0.00 -- 65.1 100.0
06/01/2018 09:00 1294.72 0.00 -- 63.9 100.0
06/01/2018 08:00 1294.73 0.00 -- 63.3 100.0
06/01/2018 07:00 1294.73 0.00 -- 62.8 100.0
06/01/2018 06:00 1294.72 0.00 -- 62.9 100.0
06/01/2018 05:00 1294.72 0.00 -- 63.8 100.0
06/01/2018 04:00 1294.72 0.00 -- 63.7 100.0
06/01/2018 03:00 1294.71 0.00 -- 63.8 100.0
06/01/2018 02:00 1294.72 0.00 -- 64.5 100.0
06/01/2018 01:00 1294.70 0.00 -- 65.9 99.0
06/01/2018 00:00 1294.72 0.00 0.03 67.1 90.0
05/31/2018 23:00 1294.72 0.00 -- 67.8 86.0
05/31/2018 22:00 1294.74 0.00 -- 67.7 82.0
05/31/2018 21:00 1294.72 0.00 -- 69.4 75.0
05/31/2018 20:00 1294.72 0.00 -- 70.5 73.0
05/31/2018 19:00 1294.72 0.00 -- 71.5 71.0
05/31/2018 18:00 1294.70 0.00 -- 76.0 56.0
05/31/2018 17:00 1294.73 0.00 -- 78.1 47.0
05/31/2018 16:00 1294.71 0.00 -- 77.3 48.0
05/31/2018 15:00 1294.71 0.00 -- 76.6 43.0
05/31/2018 14:00 1294.72 0.00 -- 75.6 41.0
05/31/2018 13:00 1294.72 0.00 -- 73.3 39.0
05/31/2018 12:00 1294.72 0.00 -- 71.8 32.0
05/31/2018 11:00 1294.73 0.00 -- 68.6 40.0
05/31/2018 10:00 1294.71 0.00 -- 65.0 50.0
05/31/2018 09:00 1294.72 0.00 -- 60.6 66.0
05/31/2018 08:00 1294.73 0.00 -- 57.9 67.0
05/31/2018 07:00 1294.73 0.00 -- 51.8 89.0
05/31/2018 06:00 1294.73 0.00 -- 51.8 90.0
05/31/2018 05:00 1294.73 0.00 -- 52.2 89.0
05/31/2018 04:00 1294.73 0.00 -- 52.7 88.0
05/31/2018 03:00 1294.74 0.00 -- 53.2 88.0
05/31/2018 02:00 1294.74 0.00 -- 54.0 88.0
05/31/2018 01:00 1294.74 0.00 -- 54.5 95.0
05/31/2018 00:00 1294.75 0.00 0.00 56.4 98.0
05/30/2018 23:00 1294.74 0.00 -- 57.8 84.0
05/30/2018 22:00 1294.74 0.00 -- 61.1 73.0
05/30/2018 21:00 1294.74 0.00 -- 66.0 58.0
05/30/2018 20:00 1294.74 0.00 -- 68.8 54.0
05/30/2018 19:00 1294.75 0.00 -- 71.2 51.0
05/30/2018 18:00 1294.75 0.00 -- 72.6 49.0
05/30/2018 17:00 1294.74 0.00 -- 77.5 35.0
05/30/2018 16:00 1294.73 0.00 -- 75.9 35.0
05/30/2018 15:00 1294.75 0.00 -- 74.3 36.0
05/30/2018 14:00 1294.75 0.00 -- 71.5 38.0
05/30/2018 13:00 1294.76 0.00 -- 68.7 37.0
05/30/2018 12:00 1294.75 0.00 -- 68.1 35.0
05/30/2018 11:00 1294.76 0.00 -- 64.9 39.0
05/30/2018 10:00 1294.76 0.00 -- 62.8 40.0
05/30/2018 09:00 1294.76 0.00 -- 56.4 47.0
05/30/2018 08:00 1294.75 0.00 -- 50.7 84.0
05/30/2018 07:00 1294.75 0.00 -- 47.7 100.0
05/30/2018 06:00 1294.75 0.00 -- 48.7 100.0
05/30/2018 05:00 1294.75 0.00 -- 47.3 99.0
05/30/2018 04:00 1294.76 0.00 -- 48.7 100.0
05/30/2018 03:00 1294.76 0.00 -- 49.8 100.0
05/30/2018 02:00 1294.76 0.00 -- 51.5 100.0
05/30/2018 01:00 1294.76 0.00 -- 53.6 100.0
05/30/2018 00:00 1294.76 0.00 0.00 54.3 98.0
05/29/2018 23:00 1294.76 0.00 -- 58.1 86.0
05/29/2018 22:00 1294.76 0.00 -- 61.7 72.0
05/29/2018 21:00 1294.76 0.00 -- 68.8 53.0
05/29/2018 20:00 1294.76 0.00 -- 80.2 37.0
05/29/2018 19:00 1294.77 0.00 -- 81.7 34.0
05/29/2018 18:00 1294.77 0.00 -- 81.1 29.0
05/29/2018 17:00 1294.77 0.00 -- 80.4 30.0
05/29/2018 16:00 1294.78 0.00 -- 79.2 35.0
05/29/2018 15:00 1294.78 0.00 -- 77.6 36.0
05/29/2018 14:00 1294.80 0.00 -- 76.2 44.0
05/29/2018 13:00 1294.79 0.00 -- 74.1 51.0
05/29/2018 12:00 1294.80 0.00 -- 72.0 60.0
05/29/2018 11:00 1294.78 0.00 -- 71.3 67.0
05/29/2018 10:00 1294.78 0.00 -- 69.2 76.0
05/29/2018 09:00 1294.77 0.00 -- 60.3 100.0
05/29/2018 08:00 1294.76 0.00 -- 56.2 100.0
05/29/2018 07:00 1294.76 0.00 -- 55.2 100.0
05/29/2018 06:00 1294.77 0.00 -- 55.6 100.0
05/29/2018 05:00 1294.76 0.00 -- 55.8 100.0
05/29/2018 04:00 1294.74 0.00 -- 56.0 100.0
05/29/2018 03:00 1294.76 0.00 -- 56.2 100.0
05/29/2018 02:00 1294.74 0.00 -- 56.2 100.0
05/29/2018 01:00 1294.75 0.00 -- 57.0 100.0
05/29/2018 00:00 1294.75 0.00 0.00 56.4 100.0
05/28/2018 23:00 1294.76 0.00 -- 57.5 100.0
05/28/2018 22:00 1294.76 0.00 -- 57.8 100.0
05/28/2018 21:00 1294.76 0.00 -- 60.7 97.0
05/28/2018 20:00 1294.75 0.00 -- 64.4 79.0
05/28/2018 19:00 1294.75 0.00 -- 67.9 67.0
05/28/2018 18:00 1294.76 0.00 -- 66.2 70.0
05/28/2018 17:00 1294.77 0.00 -- 63.6 78.0
05/28/2018 16:00 1294.75 0.00 -- 61.5 78.0
05/28/2018 15:00 1294.75 0.00 -- 61.1 77.0
05/28/2018 14:00 1294.76 0.00 -- 59.1 80.0
05/28/2018 13:00 1294.76 0.00 -- 56.8 88.0
05/28/2018 12:00 1294.77 0.00 -- 52.8 99.0
05/28/2018 11:00 1294.77 0.00 -- 48.7 99.0
05/28/2018 10:00 1294.77 0.00 -- 46.3 100.0
05/28/2018 09:00 1294.77 0.00 -- 45.1 100.0
05/28/2018 08:00 1294.78 0.01 -- 44.3 100.0
05/28/2018 07:00 1294.77 0.00 -- 43.5 100.0
05/28/2018 06:00 1294.76 0.03 -- 43.2 100.0
05/28/2018 05:00 1294.77 0.01 -- 43.8 100.0
05/28/2018 04:00 1294.77 0.00 -- 43.7 99.0
05/28/2018 03:00 1294.77 0.00 -- 43.9 99.0
05/28/2018 02:00 1294.77 0.00 -- 44.1 96.0
05/28/2018 01:00 1294.78 0.00 -- 44.4 96.0
05/28/2018 00:00 1294.77 0.00 0.05 44.7 92.0
05/27/2018 23:00 1294.77 0.00 -- 44.8 83.0
05/27/2018 22:00 1294.78 0.00 -- 46.5 78.0
05/27/2018 21:00 1294.78 0.00 -- 47.9 71.0
05/27/2018 20:00 1294.78 0.00 -- 49.6 70.0
05/27/2018 19:00 1294.76 0.00 -- 50.4 65.0
05/27/2018 18:00 1294.79 0.00 -- 51.1 66.0
05/27/2018 17:00 1294.78 0.00 -- 51.2 63.0
05/27/2018 16:00 1294.79 0.00 -- 50.8 74.0
05/27/2018 15:00 1294.78 0.00 -- 51.4 79.0
05/27/2018 14:00 1294.77 0.00 -- 50.0 90.0
05/27/2018 13:00 1294.79 0.00 -- 49.0 100.0
05/27/2018 12:00 1294.78 0.00 -- 48.1 100.0
05/27/2018 11:00 1294.79 0.01 -- 48.5 100.0
05/27/2018 10:00 1294.78 0.00 -- 48.8 100.0
05/27/2018 09:00 1294.79 0.00 -- 49.9 100.0
05/27/2018 08:00 1294.80 0.00 -- 51.4 100.0
05/27/2018 07:00 1294.79 0.00 -- 50.7 100.0
05/27/2018 06:00 1294.80 0.00 -- 50.5 100.0
05/27/2018 05:00 1294.78 0.01 -- 51.5 100.0
05/27/2018 04:00 1294.78 0.01 -- 58.9 100.0
05/27/2018 03:00 1294.79 0.02 -- 59.7 100.0
05/27/2018 02:00 1294.78 0.00 -- 62.0 89.0
05/27/2018 01:00 1294.78 0.00 -- 63.1 90.0
05/27/2018 00:00 1294.78 0.00 0.05 63.5 94.0
05/26/2018 23:00 1294.77 0.00 -- 63.3 92.0
05/26/2018 22:00 1294.77 0.00 -- 64.9 83.0
05/26/2018 21:00 1294.78 0.00 -- 66.5 83.0
05/26/2018 20:00 1294.77 0.00 -- 68.9 76.0
05/26/2018 19:00 1294.81 0.00 -- 74.1 59.0
05/26/2018 18:00 1294.78 0.00 -- 76.7 55.0
05/26/2018 17:00 1294.78 0.00 -- 77.6 49.0
05/26/2018 16:00 1294.77 0.00 -- 75.8 48.0
05/26/2018 15:00 1294.77 0.00 -- 75.2 48.0
05/26/2018 14:00 1294.77 0.00 -- 74.7 47.0
05/26/2018 13:00 1294.75 0.00 -- 75.7 46.0
05/26/2018 12:00 1294.78 0.00 -- 72.8 48.0
05/26/2018 11:00 1294.76 0.00 -- 71.3 50.0
05/26/2018 10:00 1294.77 0.00 -- 68.7 52.0
05/26/2018 09:00 1294.77 0.00 -- 66.6 57.0
05/26/2018 08:00 1294.77 0.00 -- 63.1 59.0
05/26/2018 07:00 1294.77 0.00 -- 57.7 77.0
05/26/2018 06:00 1294.77 0.00 -- 59.9 70.0
05/26/2018 05:00 1294.78 0.00 -- 61.1 63.0
05/26/2018 04:00 1294.78 0.00 -- 62.4 59.0
05/26/2018 03:00 1294.78 0.00 -- 65.8 52.0
05/26/2018 02:00 1294.77 0.00 -- 66.6 48.0
05/26/2018 01:00 1294.78 0.00 -- 66.4 52.0
05/26/2018 00:00 1294.78 0.00 0.00 67.6 46.0
05/25/2018 23:00 1294.78 0.00 -- 71.7 41.0
05/25/2018 22:00 1294.78 0.00 -- 73.9 35.0
05/25/2018 21:00 1294.78 0.00 -- 74.2 32.0
05/25/2018 20:00 1294.76 0.00 -- 75.3 31.0
05/25/2018 19:00 1294.79 0.00 -- 76.6 29.0
05/25/2018 18:00 1294.78 0.00 -- 79.6 27.0
05/25/2018 17:00 1294.75 0.00 -- 78.4 28.0
05/25/2018 16:00 1294.78 0.00 -- 79.4 28.0
05/25/2018 15:00 1294.76 0.00 -- 78.8 24.0
05/25/2018 14:00 1294.79 0.00 -- 78.0 25.0
05/25/2018 13:00 1294.79 0.00 -- 75.7 28.0
05/25/2018 12:00 1294.79 0.00 -- 73.3 42.0
05/25/2018 11:00 1294.78 0.00 -- 68.1 48.0
05/25/2018 10:00 1294.78 0.00 -- 62.7 55.0
05/25/2018 09:00 1294.78 0.00 -- 57.9 68.0
05/25/2018 08:00 1294.77 0.00 -- 53.9 76.0
05/25/2018 07:00 1294.78 0.00 -- 53.1 78.0
05/25/2018 06:00 1294.78 0.00 -- 52.8 79.0
05/25/2018 05:00 1294.79 0.00 -- 54.6 70.0
05/25/2018 04:00 1294.78 0.00 -- 56.0 62.0
05/25/2018 03:00 1294.78 0.00 -- 57.5 52.0
05/25/2018 02:00 1294.79 0.00 -- 56.8 53.0
05/25/2018 01:00 1294.79 0.00 -- 51.2 67.0
05/25/2018 00:00 1294.80 0.00 0.00 50.9 69.0
05/24/2018 23:00 1294.80 0.00 -- 51.8 65.0
05/24/2018 22:00 1294.80 0.00 -- 54.9 64.0
05/24/2018 21:00 1294.81 0.00 -- 61.6 52.0
05/24/2018 20:00 1294.81 0.00 -- 70.8 25.0
05/24/2018 19:00 1294.81 0.00 -- 71.7 24.0
05/24/2018 18:00 1294.83 0.00 -- 70.2 23.0
05/24/2018 17:00 1294.80 0.00 -- 69.2 20.0
05/24/2018 16:00 1294.83 0.00 -- 68.3 18.0
05/24/2018 15:00 1294.84 0.00 -- 66.8 24.0
05/24/2018 14:00 1294.86 0.00 -- 64.9 24.0
05/24/2018 13:00 1294.86 0.00 -- 63.2 22.0
05/24/2018 12:00 1294.83 0.00 -- 61.0 27.0
05/24/2018 11:00 1294.84 0.00 -- 59.8 26.0
05/24/2018 10:00 1294.82 0.00 -- 58.4 28.0
05/24/2018 09:00 1294.83 0.00 -- 55.3 35.0
05/24/2018 08:00 1294.83 0.00 -- 54.4 33.0
05/24/2018 07:00 1294.84 0.00 -- 42.4 96.0
05/24/2018 06:00 1294.83 0.00 -- 41.9 100.0
05/24/2018 05:00 1294.82 0.00 -- 43.1 100.0
05/24/2018 04:00 1294.82 0.00 -- 45.1 100.0
05/24/2018 03:00 1294.83 0.00 -- 48.1 99.0
05/24/2018 02:00 1294.82 0.00 -- 50.7 99.0
05/24/2018 01:00 1294.83 0.00 -- 51.5 95.0
05/24/2018 00:00 1294.83 0.00 0.00 54.7 82.0
05/23/2018 23:00 1294.83 0.00 -- 58.1 72.0
05/23/2018 22:00 1294.83 0.00 -- 62.5 59.0
05/23/2018 21:00 1294.85 0.00 -- 67.6 48.0
05/23/2018 20:00 1294.84 0.00 -- 71.0 45.0
05/23/2018 19:00 1294.84 0.00 -- 72.0 42.0
05/23/2018 18:00 1294.84 0.00 -- 73.7 35.0
05/23/2018 17:00 1294.83 0.00 -- 72.8 35.0
05/23/2018 16:00 -- -- -- 74.1 31.0
05/23/2018 15:00 -- -- -- 73.0 31.0
05/23/2018 14:00 -- -- -- 71.1 42.0
05/23/2018 13:00 -- -- -- 68.3 43.0
05/23/2018 12:00 -- -- -- 66.4 48.0
05/23/2018 11:00 -- -- -- 62.2 63.0
05/23/2018 10:00 -- -- -- 58.8 76.0
05/23/2018 09:00 -- -- -- 56.4 89.0
05/23/2018 08:00 -- -- -- 52.9 100.0
05/23/2018 07:00 -- -- -- 51.4 100.0
05/23/2018 06:00 -- -- -- 50.8 100.0
05/23/2018 05:00 -- -- -- 50.4 100.0
05/23/2018 04:00 -- -- -- 50.4 100.0
05/23/2018 03:00 -- -- -- 50.3 100.0
05/23/2018 02:00 -- -- -- 50.2 100.0
05/23/2018 01:00 -- -- -- 50.1 99.0
05/23/2018 00:00 -- -- 0.00 50.0 94.0